<?xml version="1.0" encoding="UTF-8" standalone="no" ?>
<gpx xmlns="http://www.topografix.com/GPX/1/1" xmlns:xsi="http://www.w3.org/2001/XMLSchema-instance" xsi:schemaLocation="http://www.topografix.com/GPX/1/1 http://www.topografix.com/GPX/1/1/gpx.xsd" version="1.1" creator="VisuGPX - https://www.visugpx.com">
  <metadata>
    <name>gorges du regalon</name>
    <desc><![CDATA[Localité de départMérindol
Localité d\'arrivéeCheval-Blanc

9.954km Altitude min.122mAltitude max.330mDénivelé Tot.  258mDénivelé Tot. --260m


ActivitéRandonnée Pédestre
DifficultéBasse
Type de solChemin
Type de parcoursOfficiel
Parcours baliséOui
Parcours testé par l\'auteurOui]]></desc>
  </metadata>
  <trk>
    <name><![CDATA[30-SEPT-13 15:01:45]]></name>
    <trkseg>
      <trkpt lat="43.76013" lon="5.15726">
        <ele>155.39</ele>
        <time>2013-09-30T07:43:08Z</time>
      </trkpt>
      <trkpt lat="43.76012" lon="5.15726">
        <ele>152.03</ele>
        <time>2013-09-30T07:43:12Z</time>
      </trkpt>
      <trkpt lat="43.76014" lon="5.15727">
        <ele>148.18</ele>
        <time>2013-09-30T07:43:17Z</time>
      </trkpt>
      <trkpt lat="43.76017" lon="5.15728">
        <ele>145.3</ele>
        <time>2013-09-30T07:43:23Z</time>
      </trkpt>
      <trkpt lat="43.76018" lon="5.15719">
        <ele>141.45</ele>
        <time>2013-09-30T07:43:40Z</time>
      </trkpt>
      <trkpt lat="43.76021" lon="5.15718">
        <ele>140.49</ele>
        <time>2013-09-30T07:43:47Z</time>
      </trkpt>
      <trkpt lat="43.76019" lon="5.15719">
        <ele>138.09</ele>
        <time>2013-09-30T07:44:06Z</time>
      </trkpt>
      <trkpt lat="43.76019" lon="5.15722">
        <ele>136.64</ele>
        <time>2013-09-30T07:44:26Z</time>
      </trkpt>
      <trkpt lat="43.76024" lon="5.15725">
        <ele>135.68</ele>
        <time>2013-09-30T07:44:41Z</time>
      </trkpt>
      <trkpt lat="43.76025" lon="5.15729">
        <ele>134.24</ele>
        <time>2013-09-30T07:44:54Z</time>
      </trkpt>
      <trkpt lat="43.76019" lon="5.15735">
        <ele>132.8</ele>
        <time>2013-09-30T07:45:12Z</time>
      </trkpt>
      <trkpt lat="43.76015" lon="5.15731">
        <ele>132.32</ele>
        <time>2013-09-30T07:45:33Z</time>
      </trkpt>
      <trkpt lat="43.76021" lon="5.15725">
        <ele>130.88</ele>
        <time>2013-09-30T07:45:57Z</time>
      </trkpt>
      <trkpt lat="43.76021" lon="5.15726">
        <ele>130.88</ele>
        <time>2013-09-30T07:46:08Z</time>
      </trkpt>
      <trkpt lat="43.76022" lon="5.15723">
        <ele>130.4</ele>
        <time>2013-09-30T07:46:24Z</time>
      </trkpt>
      <trkpt lat="43.76027" lon="5.1573">
        <ele>129.92</ele>
        <time>2013-09-30T07:46:39Z</time>
      </trkpt>
      <trkpt lat="43.76027" lon="5.15727">
        <ele>130.4</ele>
        <time>2013-09-30T07:46:50Z</time>
      </trkpt>
      <trkpt lat="43.76025" lon="5.15725">
        <ele>130.4</ele>
        <time>2013-09-30T07:47:11Z</time>
      </trkpt>
      <trkpt lat="43.76025" lon="5.15727">
        <ele>130.4</ele>
        <time>2013-09-30T07:47:30Z</time>
      </trkpt>
      <trkpt lat="43.7602" lon="5.15733">
        <ele>129.92</ele>
        <time>2013-09-30T07:47:55Z</time>
      </trkpt>
      <trkpt lat="43.76024" lon="5.15731">
        <ele>129.92</ele>
        <time>2013-09-30T07:48:13Z</time>
      </trkpt>
      <trkpt lat="43.76025" lon="5.15726">
        <ele>129.92</ele>
        <time>2013-09-30T07:48:20Z</time>
      </trkpt>
      <trkpt lat="43.76018" lon="5.15709">
        <ele>129.43</ele>
        <time>2013-09-30T07:48:33Z</time>
      </trkpt>
      <trkpt lat="43.76018" lon="5.15703">
        <ele>129.92</ele>
        <time>2013-09-30T07:48:45Z</time>
      </trkpt>
      <trkpt lat="43.76022" lon="5.15698">
        <ele>129.92</ele>
        <time>2013-09-30T07:49:00Z</time>
      </trkpt>
      <trkpt lat="43.76028" lon="5.15697">
        <ele>129.92</ele>
        <time>2013-09-30T07:49:15Z</time>
      </trkpt>
      <trkpt lat="43.76034" lon="5.15698">
        <ele>129.92</ele>
        <time>2013-09-30T07:49:23Z</time>
      </trkpt>
      <trkpt lat="43.76047" lon="5.15695">
        <ele>129.92</ele>
        <time>2013-09-30T07:49:37Z</time>
      </trkpt>
      <trkpt lat="43.76058" lon="5.15698">
        <ele>130.4</ele>
        <time>2013-09-30T07:49:52Z</time>
      </trkpt>
      <trkpt lat="43.76058" lon="5.15708">
        <ele>130.88</ele>
        <time>2013-09-30T07:50:06Z</time>
      </trkpt>
      <trkpt lat="43.76061" lon="5.15724">
        <ele>130.88</ele>
        <time>2013-09-30T07:50:19Z</time>
      </trkpt>
      <trkpt lat="43.76076" lon="5.1572">
        <ele>131.36</ele>
        <time>2013-09-30T07:50:34Z</time>
      </trkpt>
      <trkpt lat="43.76084" lon="5.15711">
        <ele>131.36</ele>
        <time>2013-09-30T07:50:47Z</time>
      </trkpt>
      <trkpt lat="43.76092" lon="5.15704">
        <ele>133.28</ele>
        <time>2013-09-30T07:51:03Z</time>
      </trkpt>
      <trkpt lat="43.76101" lon="5.15698">
        <ele>134.24</ele>
        <time>2013-09-30T07:51:18Z</time>
      </trkpt>
      <trkpt lat="43.76113" lon="5.15696">
        <ele>134.24</ele>
        <time>2013-09-30T07:51:29Z</time>
      </trkpt>
      <trkpt lat="43.76128" lon="5.15697">
        <ele>134.72</ele>
        <time>2013-09-30T07:51:43Z</time>
      </trkpt>
      <trkpt lat="43.76142" lon="5.15696">
        <ele>134.72</ele>
        <time>2013-09-30T07:51:58Z</time>
      </trkpt>
      <trkpt lat="43.76156" lon="5.15693">
        <ele>135.2</ele>
        <time>2013-09-30T07:52:11Z</time>
      </trkpt>
      <trkpt lat="43.76161" lon="5.15693">
        <ele>135.2</ele>
        <time>2013-09-30T07:52:16Z</time>
      </trkpt>
      <trkpt lat="43.76176" lon="5.15692">
        <ele>135.68</ele>
        <time>2013-09-30T07:52:31Z</time>
      </trkpt>
      <trkpt lat="43.7619" lon="5.1569">
        <ele>136.16</ele>
        <time>2013-09-30T07:52:46Z</time>
      </trkpt>
      <trkpt lat="43.76204" lon="5.15687">
        <ele>136.64</ele>
        <time>2013-09-30T07:53:01Z</time>
      </trkpt>
      <trkpt lat="43.76217" lon="5.15687">
        <ele>137.13</ele>
        <time>2013-09-30T07:53:13Z</time>
      </trkpt>
      <trkpt lat="43.7623" lon="5.15684">
        <ele>137.61</ele>
        <time>2013-09-30T07:53:27Z</time>
      </trkpt>
      <trkpt lat="43.76242" lon="5.15679">
        <ele>139.05</ele>
        <time>2013-09-30T07:53:41Z</time>
      </trkpt>
      <trkpt lat="43.7625" lon="5.15667">
        <ele>139.53</ele>
        <time>2013-09-30T07:53:56Z</time>
      </trkpt>
      <trkpt lat="43.76256" lon="5.15655">
        <ele>139.05</ele>
        <time>2013-09-30T07:54:08Z</time>
      </trkpt>
      <trkpt lat="43.76261" lon="5.15641">
        <ele>138.57</ele>
        <time>2013-09-30T07:54:20Z</time>
      </trkpt>
      <trkpt lat="43.76264" lon="5.15623">
        <ele>140.01</ele>
        <time>2013-09-30T07:54:35Z</time>
      </trkpt>
      <trkpt lat="43.76263" lon="5.15622">
        <ele>139.53</ele>
        <time>2013-09-30T07:54:36Z</time>
      </trkpt>
      <trkpt lat="43.76267" lon="5.15605">
        <ele>140.01</ele>
        <time>2013-09-30T07:54:50Z</time>
      </trkpt>
      <trkpt lat="43.7627" lon="5.1559">
        <ele>140.97</ele>
        <time>2013-09-30T07:55:02Z</time>
      </trkpt>
      <trkpt lat="43.76282" lon="5.15573">
        <ele>140.97</ele>
        <time>2013-09-30T07:55:15Z</time>
      </trkpt>
      <trkpt lat="43.76288" lon="5.15567">
        <ele>140.49</ele>
        <time>2013-09-30T07:55:23Z</time>
      </trkpt>
      <trkpt lat="43.76307" lon="5.15569">
        <ele>141.45</ele>
        <time>2013-09-30T07:55:40Z</time>
      </trkpt>
      <trkpt lat="43.76322" lon="5.15568">
        <ele>141.93</ele>
        <time>2013-09-30T07:55:57Z</time>
      </trkpt>
      <trkpt lat="43.76339" lon="5.15567">
        <ele>142.41</ele>
        <time>2013-09-30T07:56:14Z</time>
      </trkpt>
      <trkpt lat="43.76351" lon="5.15566">
        <ele>143.37</ele>
        <time>2013-09-30T07:56:28Z</time>
      </trkpt>
      <trkpt lat="43.76356" lon="5.15565">
        <ele>143.37</ele>
        <time>2013-09-30T07:56:33Z</time>
      </trkpt>
      <trkpt lat="43.76372" lon="5.15566">
        <ele>143.85</ele>
        <time>2013-09-30T07:56:48Z</time>
      </trkpt>
      <trkpt lat="43.76381" lon="5.15575">
        <ele>144.34</ele>
        <time>2013-09-30T07:57:01Z</time>
      </trkpt>
      <trkpt lat="43.76392" lon="5.15589">
        <ele>143.85</ele>
        <time>2013-09-30T07:57:14Z</time>
      </trkpt>
      <trkpt lat="43.76406" lon="5.15598">
        <ele>144.82</ele>
        <time>2013-09-30T07:57:30Z</time>
      </trkpt>
      <trkpt lat="43.76418" lon="5.15605">
        <ele>145.78</ele>
        <time>2013-09-30T07:57:43Z</time>
      </trkpt>
      <trkpt lat="43.76428" lon="5.15617">
        <ele>146.74</ele>
        <time>2013-09-30T07:57:59Z</time>
      </trkpt>
      <trkpt lat="43.76432" lon="5.15629">
        <ele>146.26</ele>
        <time>2013-09-30T07:58:08Z</time>
      </trkpt>
      <trkpt lat="43.76433" lon="5.15656">
        <ele>146.26</ele>
        <time>2013-09-30T07:58:28Z</time>
      </trkpt>
      <trkpt lat="43.76443" lon="5.15676">
        <ele>147.22</ele>
        <time>2013-09-30T07:58:46Z</time>
      </trkpt>
      <trkpt lat="43.76448" lon="5.15686">
        <ele>147.22</ele>
        <time>2013-09-30T07:59:01Z</time>
      </trkpt>
      <trkpt lat="43.76451" lon="5.15696">
        <ele>147.22</ele>
        <time>2013-09-30T07:59:13Z</time>
      </trkpt>
      <trkpt lat="43.76463" lon="5.15698">
        <ele>147.7</ele>
        <time>2013-09-30T07:59:27Z</time>
      </trkpt>
      <trkpt lat="43.76465" lon="5.1571">
        <ele>147.7</ele>
        <time>2013-09-30T07:59:41Z</time>
      </trkpt>
      <trkpt lat="43.76467" lon="5.1572">
        <ele>148.18</ele>
        <time>2013-09-30T07:59:53Z</time>
      </trkpt>
      <trkpt lat="43.76474" lon="5.15729">
        <ele>148.18</ele>
        <time>2013-09-30T08:00:04Z</time>
      </trkpt>
      <trkpt lat="43.76478" lon="5.15734">
        <ele>148.18</ele>
        <time>2013-09-30T08:00:13Z</time>
      </trkpt>
      <trkpt lat="43.76489" lon="5.15741">
        <ele>148.66</ele>
        <time>2013-09-30T08:00:27Z</time>
      </trkpt>
      <trkpt lat="43.76499" lon="5.15742">
        <ele>148.66</ele>
        <time>2013-09-30T08:00:41Z</time>
      </trkpt>
      <trkpt lat="43.76503" lon="5.1574">
        <ele>148.66</ele>
        <time>2013-09-30T08:00:57Z</time>
      </trkpt>
      <trkpt lat="43.7651" lon="5.1574">
        <ele>149.14</ele>
        <time>2013-09-30T08:01:06Z</time>
      </trkpt>
      <trkpt lat="43.76521" lon="5.15739">
        <ele>150.1</ele>
        <time>2013-09-30T08:01:17Z</time>
      </trkpt>
      <trkpt lat="43.76526" lon="5.15735">
        <ele>150.58</ele>
        <time>2013-09-30T08:01:24Z</time>
      </trkpt>
      <trkpt lat="43.76533" lon="5.15733">
        <ele>150.58</ele>
        <time>2013-09-30T08:01:37Z</time>
      </trkpt>
      <trkpt lat="43.76539" lon="5.15725">
        <ele>150.58</ele>
        <time>2013-09-30T08:01:52Z</time>
      </trkpt>
      <trkpt lat="43.76541" lon="5.15721">
        <ele>150.1</ele>
        <time>2013-09-30T08:02:13Z</time>
      </trkpt>
      <trkpt lat="43.76534" lon="5.15731">
        <ele>150.1</ele>
        <time>2013-09-30T08:02:38Z</time>
      </trkpt>
      <trkpt lat="43.76535" lon="5.15733">
        <ele>149.62</ele>
        <time>2013-09-30T08:03:01Z</time>
      </trkpt>
      <trkpt lat="43.76538" lon="5.15735">
        <ele>149.62</ele>
        <time>2013-09-30T08:03:20Z</time>
      </trkpt>
      <trkpt lat="43.76541" lon="5.15734">
        <ele>150.1</ele>
        <time>2013-09-30T08:03:35Z</time>
      </trkpt>
      <trkpt lat="43.76546" lon="5.15731">
        <ele>150.1</ele>
        <time>2013-09-30T08:03:54Z</time>
      </trkpt>
      <trkpt lat="43.76552" lon="5.15729">
        <ele>151.06</ele>
        <time>2013-09-30T08:04:16Z</time>
      </trkpt>
      <trkpt lat="43.76558" lon="5.15729">
        <ele>152.03</ele>
        <time>2013-09-30T08:04:31Z</time>
      </trkpt>
      <trkpt lat="43.76563" lon="5.15734">
        <ele>152.03</ele>
        <time>2013-09-30T08:04:46Z</time>
      </trkpt>
      <trkpt lat="43.76569" lon="5.15736">
        <ele>152.51</ele>
        <time>2013-09-30T08:04:55Z</time>
      </trkpt>
      <trkpt lat="43.76583" lon="5.15738">
        <ele>152.99</ele>
        <time>2013-09-30T08:05:07Z</time>
      </trkpt>
      <trkpt lat="43.76586" lon="5.15748">
        <ele>153.47</ele>
        <time>2013-09-30T08:05:22Z</time>
      </trkpt>
      <trkpt lat="43.76592" lon="5.15761">
        <ele>153.47</ele>
        <time>2013-09-30T08:05:39Z</time>
      </trkpt>
      <trkpt lat="43.76602" lon="5.1577">
        <ele>153.95</ele>
        <time>2013-09-30T08:05:57Z</time>
      </trkpt>
      <trkpt lat="43.76609" lon="5.1577">
        <ele>153.95</ele>
        <time>2013-09-30T08:06:12Z</time>
      </trkpt>
      <trkpt lat="43.76611" lon="5.1577">
        <ele>154.43</ele>
        <time>2013-09-30T08:06:34Z</time>
      </trkpt>
      <trkpt lat="43.76612" lon="5.15775">
        <ele>155.87</ele>
        <time>2013-09-30T08:06:49Z</time>
      </trkpt>
      <trkpt lat="43.76626" lon="5.15765">
        <ele>157.79</ele>
        <time>2013-09-30T08:07:08Z</time>
      </trkpt>
      <trkpt lat="43.7663" lon="5.15766">
        <ele>158.27</ele>
        <time>2013-09-30T08:07:24Z</time>
      </trkpt>
      <trkpt lat="43.76632" lon="5.15772">
        <ele>159.24</ele>
        <time>2013-09-30T08:07:38Z</time>
      </trkpt>
      <trkpt lat="43.76633" lon="5.15775">
        <ele>160.2</ele>
        <time>2013-09-30T08:07:57Z</time>
      </trkpt>
      <trkpt lat="43.76637" lon="5.15775">
        <ele>160.68</ele>
        <time>2013-09-30T08:08:21Z</time>
      </trkpt>
      <trkpt lat="43.76636" lon="5.15774">
        <ele>160.68</ele>
        <time>2013-09-30T08:08:45Z</time>
      </trkpt>
      <trkpt lat="43.76645" lon="5.15771">
        <ele>160.68</ele>
        <time>2013-09-30T08:09:02Z</time>
      </trkpt>
      <trkpt lat="43.76653" lon="5.1577">
        <ele>161.16</ele>
        <time>2013-09-30T08:09:12Z</time>
      </trkpt>
      <trkpt lat="43.7666" lon="5.15773">
        <ele>161.64</ele>
        <time>2013-09-30T08:09:36Z</time>
      </trkpt>
      <trkpt lat="43.76658" lon="5.15774">
        <ele>161.64</ele>
        <time>2013-09-30T08:09:55Z</time>
      </trkpt>
      <trkpt lat="43.76661" lon="5.1578">
        <ele>161.64</ele>
        <time>2013-09-30T08:10:06Z</time>
      </trkpt>
      <trkpt lat="43.76665" lon="5.15785">
        <ele>162.12</ele>
        <time>2013-09-30T08:10:21Z</time>
      </trkpt>
      <trkpt lat="43.76669" lon="5.15797">
        <ele>162.12</ele>
        <time>2013-09-30T08:10:38Z</time>
      </trkpt>
      <trkpt lat="43.76672" lon="5.15806">
        <ele>162.6</ele>
        <time>2013-09-30T08:10:51Z</time>
      </trkpt>
      <trkpt lat="43.76682" lon="5.15807">
        <ele>162.6</ele>
        <time>2013-09-30T08:11:00Z</time>
      </trkpt>
      <trkpt lat="43.76699" lon="5.15813">
        <ele>163.56</ele>
        <time>2013-09-30T08:11:16Z</time>
      </trkpt>
      <trkpt lat="43.76707" lon="5.1582">
        <ele>163.56</ele>
        <time>2013-09-30T08:11:28Z</time>
      </trkpt>
      <trkpt lat="43.76708" lon="5.15824">
        <ele>164.04</ele>
        <time>2013-09-30T08:11:47Z</time>
      </trkpt>
      <trkpt lat="43.76707" lon="5.15829">
        <ele>165</ele>
        <time>2013-09-30T08:12:04Z</time>
      </trkpt>
      <trkpt lat="43.76702" lon="5.1584">
        <ele>166.93</ele>
        <time>2013-09-30T08:12:19Z</time>
      </trkpt>
      <trkpt lat="43.76703" lon="5.15845">
        <ele>166.93</ele>
        <time>2013-09-30T08:12:37Z</time>
      </trkpt>
      <trkpt lat="43.76707" lon="5.15844">
        <ele>167.41</ele>
        <time>2013-09-30T08:12:50Z</time>
      </trkpt>
      <trkpt lat="43.76706" lon="5.15833">
        <ele>167.41</ele>
        <time>2013-09-30T08:13:11Z</time>
      </trkpt>
      <trkpt lat="43.76705" lon="5.1584">
        <ele>167.41</ele>
        <time>2013-09-30T08:13:42Z</time>
      </trkpt>
      <trkpt lat="43.76711" lon="5.15839">
        <ele>167.89</ele>
        <time>2013-09-30T08:13:46Z</time>
      </trkpt>
      <trkpt lat="43.76722" lon="5.15836">
        <ele>167.89</ele>
        <time>2013-09-30T08:13:54Z</time>
      </trkpt>
      <trkpt lat="43.76735" lon="5.15836">
        <ele>168.85</ele>
        <time>2013-09-30T08:14:08Z</time>
      </trkpt>
      <trkpt lat="43.76743" lon="5.15838">
        <ele>169.81</ele>
        <time>2013-09-30T08:14:25Z</time>
      </trkpt>
      <trkpt lat="43.76749" lon="5.15839">
        <ele>169.81</ele>
        <time>2013-09-30T08:14:36Z</time>
      </trkpt>
      <trkpt lat="43.7676" lon="5.15837">
        <ele>170.77</ele>
        <time>2013-09-30T08:14:48Z</time>
      </trkpt>
      <trkpt lat="43.76779" lon="5.15832">
        <ele>171.25</ele>
        <time>2013-09-30T08:15:01Z</time>
      </trkpt>
      <trkpt lat="43.76782" lon="5.15834">
        <ele>172.21</ele>
        <time>2013-09-30T08:15:15Z</time>
      </trkpt>
      <trkpt lat="43.76786" lon="5.15835">
        <ele>173.17</ele>
        <time>2013-09-30T08:15:31Z</time>
      </trkpt>
      <trkpt lat="43.7679" lon="5.15837">
        <ele>173.17</ele>
        <time>2013-09-30T08:15:42Z</time>
      </trkpt>
      <trkpt lat="43.76798" lon="5.15842">
        <ele>173.66</ele>
        <time>2013-09-30T08:15:57Z</time>
      </trkpt>
      <trkpt lat="43.76801" lon="5.15841">
        <ele>174.62</ele>
        <time>2013-09-30T08:16:20Z</time>
      </trkpt>
      <trkpt lat="43.7693" lon="5.15876">
        <ele>185.67</ele>
        <time>2013-09-30T08:25:14Z</time>
      </trkpt>
      <trkpt lat="43.76951" lon="5.15876">
        <ele>186.15</ele>
        <time>2013-09-30T08:25:35Z</time>
      </trkpt>
      <trkpt lat="43.76976" lon="5.15881">
        <ele>187.59</ele>
        <time>2013-09-30T08:25:57Z</time>
      </trkpt>
      <trkpt lat="43.77474" lon="5.15798">
        <ele>221.24</ele>
        <time>2013-09-30T08:49:21Z</time>
      </trkpt>
      <trkpt lat="43.77483" lon="5.15794">
        <ele>221.24</ele>
        <time>2013-09-30T08:49:31Z</time>
      </trkpt>
      <trkpt lat="43.77473" lon="5.158">
        <ele>221.72</ele>
        <time>2013-09-30T08:49:44Z</time>
      </trkpt>
      <trkpt lat="43.7746" lon="5.15796">
        <ele>222.2</ele>
        <time>2013-09-30T08:49:57Z</time>
      </trkpt>
      <trkpt lat="43.77452" lon="5.15799">
        <ele>222.68</ele>
        <time>2013-09-30T08:50:12Z</time>
      </trkpt>
      <trkpt lat="43.77456" lon="5.15802">
        <ele>223.16</ele>
        <time>2013-09-30T08:50:25Z</time>
      </trkpt>
      <trkpt lat="43.77454" lon="5.15802">
        <ele>223.64</ele>
        <time>2013-09-30T08:50:41Z</time>
      </trkpt>
      <trkpt lat="43.77453" lon="5.15804">
        <ele>223.64</ele>
        <time>2013-09-30T08:51:01Z</time>
      </trkpt>
      <trkpt lat="43.77453" lon="5.15801">
        <ele>223.16</ele>
        <time>2013-09-30T08:51:21Z</time>
      </trkpt>
      <trkpt lat="43.77453" lon="5.15798">
        <ele>223.16</ele>
        <time>2013-09-30T08:51:40Z</time>
      </trkpt>
      <trkpt lat="43.7745" lon="5.15798">
        <ele>223.16</ele>
        <time>2013-09-30T08:51:51Z</time>
      </trkpt>
      <trkpt lat="43.77445" lon="5.15797">
        <ele>223.64</ele>
        <time>2013-09-30T08:52:04Z</time>
      </trkpt>
      <trkpt lat="43.7745" lon="5.15797">
        <ele>223.64</ele>
        <time>2013-09-30T08:52:17Z</time>
      </trkpt>
      <trkpt lat="43.77456" lon="5.15798">
        <ele>223.16</ele>
        <time>2013-09-30T08:52:30Z</time>
      </trkpt>
      <trkpt lat="43.77457" lon="5.15799">
        <ele>223.16</ele>
        <time>2013-09-30T08:52:40Z</time>
      </trkpt>
      <trkpt lat="43.77459" lon="5.15799">
        <ele>224.12</ele>
        <time>2013-09-30T08:52:56Z</time>
      </trkpt>
      <trkpt lat="43.77454" lon="5.15799">
        <ele>224.12</ele>
        <time>2013-09-30T08:53:08Z</time>
      </trkpt>
      <trkpt lat="43.77452" lon="5.15799">
        <ele>224.12</ele>
        <time>2013-09-30T08:53:22Z</time>
      </trkpt>
      <trkpt lat="43.77453" lon="5.15801">
        <ele>224.12</ele>
        <time>2013-09-30T08:53:49Z</time>
      </trkpt>
      <trkpt lat="43.7745" lon="5.15801">
        <ele>223.64</ele>
        <time>2013-09-30T08:54:02Z</time>
      </trkpt>
      <trkpt lat="43.77449" lon="5.15802">
        <ele>223.16</ele>
        <time>2013-09-30T08:54:18Z</time>
      </trkpt>
      <trkpt lat="43.77456" lon="5.15803">
        <ele>223.16</ele>
        <time>2013-09-30T08:54:33Z</time>
      </trkpt>
      <trkpt lat="43.77462" lon="5.15801">
        <ele>223.16</ele>
        <time>2013-09-30T08:54:54Z</time>
      </trkpt>
      <trkpt lat="43.77461" lon="5.15803">
        <ele>223.16</ele>
        <time>2013-09-30T08:55:09Z</time>
      </trkpt>
      <trkpt lat="43.77461" lon="5.15805">
        <ele>223.64</ele>
        <time>2013-09-30T08:55:22Z</time>
      </trkpt>
      <trkpt lat="43.77461" lon="5.15804">
        <ele>223.64</ele>
        <time>2013-09-30T08:55:37Z</time>
      </trkpt>
      <trkpt lat="43.77461" lon="5.15801">
        <ele>224.12</ele>
        <time>2013-09-30T08:55:45Z</time>
      </trkpt>
      <trkpt lat="43.77462" lon="5.15802">
        <ele>224.12</ele>
        <time>2013-09-30T08:56:01Z</time>
      </trkpt>
      <trkpt lat="43.77463" lon="5.15798">
        <ele>224.12</ele>
        <time>2013-09-30T08:56:16Z</time>
      </trkpt>
      <trkpt lat="43.7746" lon="5.15798">
        <ele>224.12</ele>
        <time>2013-09-30T08:56:39Z</time>
      </trkpt>
      <trkpt lat="43.77456" lon="5.15799">
        <ele>224.61</ele>
        <time>2013-09-30T08:56:53Z</time>
      </trkpt>
      <trkpt lat="43.77463" lon="5.15799">
        <ele>226.53</ele>
        <time>2013-09-30T08:57:05Z</time>
      </trkpt>
      <trkpt lat="43.77465" lon="5.15795">
        <ele>227.01</ele>
        <time>2013-09-30T08:57:29Z</time>
      </trkpt>
      <trkpt lat="43.77475" lon="5.15797">
        <ele>226.53</ele>
        <time>2013-09-30T08:57:53Z</time>
      </trkpt>
      <trkpt lat="43.77471" lon="5.15799">
        <ele>224.61</ele>
        <time>2013-09-30T08:58:12Z</time>
      </trkpt>
      <trkpt lat="43.77461" lon="5.15797">
        <ele>224.61</ele>
        <time>2013-09-30T08:58:30Z</time>
      </trkpt>
      <trkpt lat="43.77462" lon="5.15803">
        <ele>223.64</ele>
        <time>2013-09-30T08:58:43Z</time>
      </trkpt>
      <trkpt lat="43.77457" lon="5.15802">
        <ele>223.64</ele>
        <time>2013-09-30T08:59:09Z</time>
      </trkpt>
      <trkpt lat="43.77451" lon="5.15801">
        <ele>224.12</ele>
        <time>2013-09-30T08:59:34Z</time>
      </trkpt>
      <trkpt lat="43.77451" lon="5.15801">
        <ele>224.12</ele>
        <time>2013-09-30T08:59:48Z</time>
      </trkpt>
      <trkpt lat="43.77458" lon="5.15801">
        <ele>224.12</ele>
        <time>2013-09-30T09:00:12Z</time>
      </trkpt>
      <trkpt lat="43.77464" lon="5.15804">
        <ele>224.12</ele>
        <time>2013-09-30T09:00:38Z</time>
      </trkpt>
      <trkpt lat="43.77461" lon="5.15802">
        <ele>224.12</ele>
        <time>2013-09-30T09:00:59Z</time>
      </trkpt>
      <trkpt lat="43.77461" lon="5.15807">
        <ele>224.12</ele>
        <time>2013-09-30T09:01:22Z</time>
      </trkpt>
      <trkpt lat="43.77466" lon="5.15808">
        <ele>223.64</ele>
        <time>2013-09-30T09:01:54Z</time>
      </trkpt>
      <trkpt lat="43.77462" lon="5.15808">
        <ele>223.64</ele>
        <time>2013-09-30T09:02:11Z</time>
      </trkpt>
      <trkpt lat="43.77462" lon="5.15805">
        <ele>223.64</ele>
        <time>2013-09-30T09:02:32Z</time>
      </trkpt>
      <trkpt lat="43.77459" lon="5.15808">
        <ele>223.16</ele>
        <time>2013-09-30T09:02:59Z</time>
      </trkpt>
      <trkpt lat="43.77459" lon="5.15807">
        <ele>223.16</ele>
        <time>2013-09-30T09:03:21Z</time>
      </trkpt>
      <trkpt lat="43.77464" lon="5.15804">
        <ele>223.16</ele>
        <time>2013-09-30T09:03:47Z</time>
      </trkpt>
      <trkpt lat="43.77464" lon="5.15806">
        <ele>223.16</ele>
        <time>2013-09-30T09:04:12Z</time>
      </trkpt>
      <trkpt lat="43.77462" lon="5.15803">
        <ele>223.16</ele>
        <time>2013-09-30T09:04:41Z</time>
      </trkpt>
      <trkpt lat="43.77463" lon="5.15803">
        <ele>223.64</ele>
        <time>2013-09-30T09:05:14Z</time>
      </trkpt>
      <trkpt lat="43.77467" lon="5.158">
        <ele>223.16</ele>
        <time>2013-09-30T09:05:45Z</time>
      </trkpt>
      <trkpt lat="43.77463" lon="5.15805">
        <ele>223.16</ele>
        <time>2013-09-30T09:06:08Z</time>
      </trkpt>
      <trkpt lat="43.77466" lon="5.15812">
        <ele>222.68</ele>
        <time>2013-09-30T09:06:29Z</time>
      </trkpt>
      <trkpt lat="43.77466" lon="5.15821">
        <ele>222.2</ele>
        <time>2013-09-30T09:06:44Z</time>
      </trkpt>
      <trkpt lat="43.77469" lon="5.15832">
        <ele>222.68</ele>
        <time>2013-09-30T09:07:03Z</time>
      </trkpt>
      <trkpt lat="43.77473" lon="5.15845">
        <ele>223.16</ele>
        <time>2013-09-30T09:07:18Z</time>
      </trkpt>
      <trkpt lat="43.77477" lon="5.15857">
        <ele>224.12</ele>
        <time>2013-09-30T09:07:32Z</time>
      </trkpt>
      <trkpt lat="43.77485" lon="5.15869">
        <ele>224.61</ele>
        <time>2013-09-30T09:07:45Z</time>
      </trkpt>
      <trkpt lat="43.77489" lon="5.15879">
        <ele>226.05</ele>
        <time>2013-09-30T09:07:59Z</time>
      </trkpt>
      <trkpt lat="43.77494" lon="5.15892">
        <ele>226.53</ele>
        <time>2013-09-30T09:08:11Z</time>
      </trkpt>
      <trkpt lat="43.77503" lon="5.15903">
        <ele>227.01</ele>
        <time>2013-09-30T09:08:26Z</time>
      </trkpt>
      <trkpt lat="43.77512" lon="5.15911">
        <ele>227.49</ele>
        <time>2013-09-30T09:08:38Z</time>
      </trkpt>
      <trkpt lat="43.77522" lon="5.15921">
        <ele>227.97</ele>
        <time>2013-09-30T09:08:54Z</time>
      </trkpt>
      <trkpt lat="43.77529" lon="5.15933">
        <ele>228.45</ele>
        <time>2013-09-30T09:09:09Z</time>
      </trkpt>
      <trkpt lat="43.77531" lon="5.1594">
        <ele>228.45</ele>
        <time>2013-09-30T09:09:15Z</time>
      </trkpt>
      <trkpt lat="43.77532" lon="5.15953">
        <ele>229.41</ele>
        <time>2013-09-30T09:09:31Z</time>
      </trkpt>
      <trkpt lat="43.77534" lon="5.1597">
        <ele>229.89</ele>
        <time>2013-09-30T09:09:48Z</time>
      </trkpt>
      <trkpt lat="43.77535" lon="5.15985">
        <ele>230.85</ele>
        <time>2013-09-30T09:10:02Z</time>
      </trkpt>
      <trkpt lat="43.77536" lon="5.16">
        <ele>230.85</ele>
        <time>2013-09-30T09:10:16Z</time>
      </trkpt>
      <trkpt lat="43.77535" lon="5.16003">
        <ele>231.33</ele>
        <time>2013-09-30T09:10:19Z</time>
      </trkpt>
      <trkpt lat="43.77538" lon="5.16015">
        <ele>231.33</ele>
        <time>2013-09-30T09:10:35Z</time>
      </trkpt>
      <trkpt lat="43.77536" lon="5.16025">
        <ele>232.3</ele>
        <time>2013-09-30T09:10:45Z</time>
      </trkpt>
      <trkpt lat="43.77538" lon="5.16037">
        <ele>232.3</ele>
        <time>2013-09-30T09:10:58Z</time>
      </trkpt>
      <trkpt lat="43.77533" lon="5.16045">
        <ele>232.78</ele>
        <time>2013-09-30T09:11:15Z</time>
      </trkpt>
      <trkpt lat="43.77535" lon="5.1607">
        <ele>233.74</ele>
        <time>2013-09-30T09:11:39Z</time>
      </trkpt>
      <trkpt lat="43.77536" lon="5.16083">
        <ele>233.74</ele>
        <time>2013-09-30T09:11:57Z</time>
      </trkpt>
      <trkpt lat="43.77536" lon="5.16086">
        <ele>234.7</ele>
        <time>2013-09-30T09:12:02Z</time>
      </trkpt>
      <trkpt lat="43.77533" lon="5.16089">
        <ele>234.22</ele>
        <time>2013-09-30T09:12:09Z</time>
      </trkpt>
      <trkpt lat="43.77523" lon="5.16099">
        <ele>234.7</ele>
        <time>2013-09-30T09:12:27Z</time>
      </trkpt>
      <trkpt lat="43.77526" lon="5.16118">
        <ele>235.66</ele>
        <time>2013-09-30T09:12:44Z</time>
      </trkpt>
      <trkpt lat="43.77532" lon="5.16132">
        <ele>235.66</ele>
        <time>2013-09-30T09:13:01Z</time>
      </trkpt>
      <trkpt lat="43.77533" lon="5.16143">
        <ele>236.14</ele>
        <time>2013-09-30T09:13:16Z</time>
      </trkpt>
      <trkpt lat="43.77536" lon="5.16151">
        <ele>235.66</ele>
        <time>2013-09-30T09:13:41Z</time>
      </trkpt>
      <trkpt lat="43.77533" lon="5.16152">
        <ele>235.66</ele>
        <time>2013-09-30T09:14:06Z</time>
      </trkpt>
      <trkpt lat="43.77533" lon="5.1616">
        <ele>236.14</ele>
        <time>2013-09-30T09:14:33Z</time>
      </trkpt>
      <trkpt lat="43.77531" lon="5.16176">
        <ele>236.62</ele>
        <time>2013-09-30T09:15:00Z</time>
      </trkpt>
      <trkpt lat="43.77529" lon="5.16174">
        <ele>236.62</ele>
        <time>2013-09-30T09:15:06Z</time>
      </trkpt>
      <trkpt lat="43.77543" lon="5.16191">
        <ele>237.58</ele>
        <time>2013-09-30T09:15:52Z</time>
      </trkpt>
      <trkpt lat="43.77545" lon="5.162">
        <ele>238.06</ele>
        <time>2013-09-30T09:16:08Z</time>
      </trkpt>
      <trkpt lat="43.77543" lon="5.1621">
        <ele>238.54</ele>
        <time>2013-09-30T09:16:19Z</time>
      </trkpt>
      <trkpt lat="43.77538" lon="5.16221">
        <ele>239.51</ele>
        <time>2013-09-30T09:16:38Z</time>
      </trkpt>
      <trkpt lat="43.77541" lon="5.16232">
        <ele>242.39</ele>
        <time>2013-09-30T09:16:56Z</time>
      </trkpt>
      <trkpt lat="43.77543" lon="5.16233">
        <ele>242.39</ele>
        <time>2013-09-30T09:17:16Z</time>
      </trkpt>
      <trkpt lat="43.7754" lon="5.16234">
        <ele>242.39</ele>
        <time>2013-09-30T09:17:39Z</time>
      </trkpt>
      <trkpt lat="43.7753" lon="5.16237">
        <ele>242.39</ele>
        <time>2013-09-30T09:18:11Z</time>
      </trkpt>
      <trkpt lat="43.77536" lon="5.16237">
        <ele>242.87</ele>
        <time>2013-09-30T09:18:32Z</time>
      </trkpt>
      <trkpt lat="43.7756" lon="5.16237">
        <ele>242.87</ele>
        <time>2013-09-30T09:18:59Z</time>
      </trkpt>
      <trkpt lat="43.77542" lon="5.16247">
        <ele>242.87</ele>
        <time>2013-09-30T09:19:27Z</time>
      </trkpt>
      <trkpt lat="43.77537" lon="5.16267">
        <ele>243.35</ele>
        <time>2013-09-30T09:19:48Z</time>
      </trkpt>
      <trkpt lat="43.7754" lon="5.16285">
        <ele>244.31</ele>
        <time>2013-09-30T09:20:03Z</time>
      </trkpt>
      <trkpt lat="43.7754" lon="5.16307">
        <ele>245.27</ele>
        <time>2013-09-30T09:20:21Z</time>
      </trkpt>
      <trkpt lat="43.77539" lon="5.16309">
        <ele>245.27</ele>
        <time>2013-09-30T09:20:23Z</time>
      </trkpt>
      <trkpt lat="43.77534" lon="5.16319">
        <ele>246.72</ele>
        <time>2013-09-30T09:20:38Z</time>
      </trkpt>
      <trkpt lat="43.77526" lon="5.16341">
        <ele>247.68</ele>
        <time>2013-09-30T09:20:56Z</time>
      </trkpt>
      <trkpt lat="43.77525" lon="5.16345">
        <ele>248.16</ele>
        <time>2013-09-30T09:20:59Z</time>
      </trkpt>
      <trkpt lat="43.77519" lon="5.16356">
        <ele>248.64</ele>
        <time>2013-09-30T09:21:14Z</time>
      </trkpt>
      <trkpt lat="43.77516" lon="5.16365">
        <ele>248.64</ele>
        <time>2013-09-30T09:21:25Z</time>
      </trkpt>
      <trkpt lat="43.77516" lon="5.16374">
        <ele>249.12</ele>
        <time>2013-09-30T09:21:46Z</time>
      </trkpt>
      <trkpt lat="43.77516" lon="5.16375">
        <ele>248.64</ele>
        <time>2013-09-30T09:22:14Z</time>
      </trkpt>
      <trkpt lat="43.77514" lon="5.16375">
        <ele>248.64</ele>
        <time>2013-09-30T09:22:35Z</time>
      </trkpt>
      <trkpt lat="43.77506" lon="5.16385">
        <ele>249.12</ele>
        <time>2013-09-30T09:22:49Z</time>
      </trkpt>
      <trkpt lat="43.77497" lon="5.16398">
        <ele>249.12</ele>
        <time>2013-09-30T09:23:13Z</time>
      </trkpt>
      <trkpt lat="43.77507" lon="5.16422">
        <ele>250.08</ele>
        <time>2013-09-30T09:23:30Z</time>
      </trkpt>
      <trkpt lat="43.77513" lon="5.16446">
        <ele>250.56</ele>
        <time>2013-09-30T09:23:50Z</time>
      </trkpt>
      <trkpt lat="43.77524" lon="5.16454">
        <ele>251.04</ele>
        <time>2013-09-30T09:24:04Z</time>
      </trkpt>
      <trkpt lat="43.77524" lon="5.16475">
        <ele>252.48</ele>
        <time>2013-09-30T09:24:20Z</time>
      </trkpt>
      <trkpt lat="43.77522" lon="5.16481">
        <ele>252.48</ele>
        <time>2013-09-30T09:24:26Z</time>
      </trkpt>
      <trkpt lat="43.77517" lon="5.1649">
        <ele>253.44</ele>
        <time>2013-09-30T09:24:38Z</time>
      </trkpt>
      <trkpt lat="43.77507" lon="5.165">
        <ele>254.41</ele>
        <time>2013-09-30T09:24:57Z</time>
      </trkpt>
      <trkpt lat="43.77503" lon="5.16502">
        <ele>254.89</ele>
        <time>2013-09-30T09:25:02Z</time>
      </trkpt>
      <trkpt lat="43.775" lon="5.1651">
        <ele>255.37</ele>
        <time>2013-09-30T09:25:14Z</time>
      </trkpt>
      <trkpt lat="43.77503" lon="5.16517">
        <ele>256.33</ele>
        <time>2013-09-30T09:25:27Z</time>
      </trkpt>
      <trkpt lat="43.77506" lon="5.16517">
        <ele>255.85</ele>
        <time>2013-09-30T09:25:46Z</time>
      </trkpt>
      <trkpt lat="43.77503" lon="5.16516">
        <ele>255.85</ele>
        <time>2013-09-30T09:26:07Z</time>
      </trkpt>
      <trkpt lat="43.77506" lon="5.16523">
        <ele>256.33</ele>
        <time>2013-09-30T09:26:27Z</time>
      </trkpt>
      <trkpt lat="43.77509" lon="5.16535">
        <ele>257.77</ele>
        <time>2013-09-30T09:26:47Z</time>
      </trkpt>
      <trkpt lat="43.77513" lon="5.16555">
        <ele>258.25</ele>
        <time>2013-09-30T09:27:02Z</time>
      </trkpt>
      <trkpt lat="43.77519" lon="5.16573">
        <ele>259.69</ele>
        <time>2013-09-30T09:27:19Z</time>
      </trkpt>
      <trkpt lat="43.77522" lon="5.16589">
        <ele>260.65</ele>
        <time>2013-09-30T09:27:34Z</time>
      </trkpt>
      <trkpt lat="43.77521" lon="5.16605">
        <ele>261.14</ele>
        <time>2013-09-30T09:27:51Z</time>
      </trkpt>
      <trkpt lat="43.7752" lon="5.16628">
        <ele>262.58</ele>
        <time>2013-09-30T09:28:11Z</time>
      </trkpt>
      <trkpt lat="43.77525" lon="5.16646">
        <ele>263.54</ele>
        <time>2013-09-30T09:28:27Z</time>
      </trkpt>
      <trkpt lat="43.77533" lon="5.16658">
        <ele>263.54</ele>
        <time>2013-09-30T09:28:39Z</time>
      </trkpt>
      <trkpt lat="43.7754" lon="5.16666">
        <ele>264.02</ele>
        <time>2013-09-30T09:28:51Z</time>
      </trkpt>
      <trkpt lat="43.77551" lon="5.1668">
        <ele>264.5</ele>
        <time>2013-09-30T09:29:04Z</time>
      </trkpt>
      <trkpt lat="43.7756" lon="5.16688">
        <ele>264.98</ele>
        <time>2013-09-30T09:29:21Z</time>
      </trkpt>
      <trkpt lat="43.7757" lon="5.16709">
        <ele>266.42</ele>
        <time>2013-09-30T09:29:37Z</time>
      </trkpt>
      <trkpt lat="43.77573" lon="5.16723">
        <ele>266.9</ele>
        <time>2013-09-30T09:29:54Z</time>
      </trkpt>
      <trkpt lat="43.77575" lon="5.16729">
        <ele>267.38</ele>
        <time>2013-09-30T09:30:07Z</time>
      </trkpt>
      <trkpt lat="43.77574" lon="5.16732">
        <ele>267.38</ele>
        <time>2013-09-30T09:30:18Z</time>
      </trkpt>
      <trkpt lat="43.77579" lon="5.16733">
        <ele>267.86</ele>
        <time>2013-09-30T09:30:35Z</time>
      </trkpt>
      <trkpt lat="43.77586" lon="5.16732">
        <ele>269.31</ele>
        <time>2013-09-30T09:30:47Z</time>
      </trkpt>
      <trkpt lat="43.77589" lon="5.16724">
        <ele>271.23</ele>
        <time>2013-09-30T09:31:02Z</time>
      </trkpt>
      <trkpt lat="43.77591" lon="5.1672">
        <ele>272.19</ele>
        <time>2013-09-30T09:31:14Z</time>
      </trkpt>
      <trkpt lat="43.77593" lon="5.16715">
        <ele>275.56</ele>
        <time>2013-09-30T09:31:26Z</time>
      </trkpt>
      <trkpt lat="43.77595" lon="5.16707">
        <ele>277.96</ele>
        <time>2013-09-30T09:31:42Z</time>
      </trkpt>
      <trkpt lat="43.77599" lon="5.16699">
        <ele>278.92</ele>
        <time>2013-09-30T09:31:55Z</time>
      </trkpt>
      <trkpt lat="43.776" lon="5.16699">
        <ele>278.92</ele>
        <time>2013-09-30T09:32:09Z</time>
      </trkpt>
      <trkpt lat="43.77603" lon="5.16697">
        <ele>278.44</ele>
        <time>2013-09-30T09:32:25Z</time>
      </trkpt>
      <trkpt lat="43.77602" lon="5.16699">
        <ele>278.44</ele>
        <time>2013-09-30T09:32:37Z</time>
      </trkpt>
      <trkpt lat="43.77596" lon="5.16695">
        <ele>278.44</ele>
        <time>2013-09-30T09:32:56Z</time>
      </trkpt>
      <trkpt lat="43.77593" lon="5.16698">
        <ele>278.44</ele>
        <time>2013-09-30T09:33:12Z</time>
      </trkpt>
      <trkpt lat="43.77584" lon="5.16691">
        <ele>278.92</ele>
        <time>2013-09-30T09:33:27Z</time>
      </trkpt>
      <trkpt lat="43.7758" lon="5.16688">
        <ele>278.44</ele>
        <time>2013-09-30T09:33:32Z</time>
      </trkpt>
      <trkpt lat="43.7757" lon="5.16679">
        <ele>279.4</ele>
        <time>2013-09-30T09:33:43Z</time>
      </trkpt>
      <trkpt lat="43.77569" lon="5.16679">
        <ele>279.4</ele>
        <time>2013-09-30T09:33:53Z</time>
      </trkpt>
      <trkpt lat="43.7757" lon="5.16678">
        <ele>279.4</ele>
        <time>2013-09-30T09:34:08Z</time>
      </trkpt>
      <trkpt lat="43.7757" lon="5.16678">
        <ele>279.88</ele>
        <time>2013-09-30T09:34:27Z</time>
      </trkpt>
      <trkpt lat="43.77567" lon="5.16679">
        <ele>279.88</ele>
        <time>2013-09-30T09:34:55Z</time>
      </trkpt>
      <trkpt lat="43.77565" lon="5.16673">
        <ele>279.88</ele>
        <time>2013-09-30T09:35:11Z</time>
      </trkpt>
      <trkpt lat="43.77555" lon="5.16658">
        <ele>281.32</ele>
        <time>2013-09-30T09:35:29Z</time>
      </trkpt>
      <trkpt lat="43.77556" lon="5.16657">
        <ele>281.32</ele>
        <time>2013-09-30T09:35:40Z</time>
      </trkpt>
      <trkpt lat="43.77555" lon="5.16651">
        <ele>281.32</ele>
        <time>2013-09-30T09:35:44Z</time>
      </trkpt>
      <trkpt lat="43.77552" lon="5.16641">
        <ele>281.8</ele>
        <time>2013-09-30T09:35:53Z</time>
      </trkpt>
      <trkpt lat="43.77557" lon="5.16622">
        <ele>282.28</ele>
        <time>2013-09-30T09:36:06Z</time>
      </trkpt>
      <trkpt lat="43.77565" lon="5.16603">
        <ele>282.28</ele>
        <time>2013-09-30T09:36:21Z</time>
      </trkpt>
      <trkpt lat="43.77574" lon="5.16582">
        <ele>282.77</ele>
        <time>2013-09-30T09:36:38Z</time>
      </trkpt>
      <trkpt lat="43.77579" lon="5.16562">
        <ele>282.28</ele>
        <time>2013-09-30T09:36:53Z</time>
      </trkpt>
      <trkpt lat="43.77582" lon="5.1655">
        <ele>282.28</ele>
        <time>2013-09-30T09:37:02Z</time>
      </trkpt>
      <trkpt lat="43.77583" lon="5.16545">
        <ele>282.28</ele>
        <time>2013-09-30T09:37:05Z</time>
      </trkpt>
      <trkpt lat="43.77589" lon="5.16528">
        <ele>281.32</ele>
        <time>2013-09-30T09:37:18Z</time>
      </trkpt>
      <trkpt lat="43.77599" lon="5.16514">
        <ele>281.32</ele>
        <time>2013-09-30T09:37:32Z</time>
      </trkpt>
      <trkpt lat="43.776" lon="5.16514">
        <ele>280.84</ele>
        <time>2013-09-30T09:37:33Z</time>
      </trkpt>
      <trkpt lat="43.77601" lon="5.16511">
        <ele>280.84</ele>
        <time>2013-09-30T09:37:37Z</time>
      </trkpt>
      <trkpt lat="43.77615" lon="5.16506">
        <ele>279.4</ele>
        <time>2013-09-30T09:37:52Z</time>
      </trkpt>
      <trkpt lat="43.77631" lon="5.16499">
        <ele>277.96</ele>
        <time>2013-09-30T09:38:09Z</time>
      </trkpt>
      <trkpt lat="43.77643" lon="5.16483">
        <ele>277.48</ele>
        <time>2013-09-30T09:38:23Z</time>
      </trkpt>
      <trkpt lat="43.77646" lon="5.16466">
        <ele>278.44</ele>
        <time>2013-09-30T09:38:37Z</time>
      </trkpt>
      <trkpt lat="43.77642" lon="5.16462">
        <ele>278.92</ele>
        <time>2013-09-30T09:38:42Z</time>
      </trkpt>
      <trkpt lat="43.77637" lon="5.16458">
        <ele>279.4</ele>
        <time>2013-09-30T09:38:46Z</time>
      </trkpt>
      <trkpt lat="43.77624" lon="5.16453">
        <ele>280.36</ele>
        <time>2013-09-30T09:38:59Z</time>
      </trkpt>
      <trkpt lat="43.77623" lon="5.16452">
        <ele>280.36</ele>
        <time>2013-09-30T09:39:00Z</time>
      </trkpt>
      <trkpt lat="43.77612" lon="5.16441">
        <ele>281.8</ele>
        <time>2013-09-30T09:39:14Z</time>
      </trkpt>
      <trkpt lat="43.77602" lon="5.16429">
        <ele>282.77</ele>
        <time>2013-09-30T09:39:26Z</time>
      </trkpt>
      <trkpt lat="43.77593" lon="5.16418">
        <ele>283.25</ele>
        <time>2013-09-30T09:39:37Z</time>
      </trkpt>
      <trkpt lat="43.77584" lon="5.16405">
        <ele>283.73</ele>
        <time>2013-09-30T09:39:51Z</time>
      </trkpt>
      <trkpt lat="43.77579" lon="5.1639">
        <ele>284.69</ele>
        <time>2013-09-30T09:40:03Z</time>
      </trkpt>
      <trkpt lat="43.77578" lon="5.1638">
        <ele>285.17</ele>
        <time>2013-09-30T09:40:11Z</time>
      </trkpt>
      <trkpt lat="43.77579" lon="5.16375">
        <ele>284.69</ele>
        <time>2013-09-30T09:40:14Z</time>
      </trkpt>
      <trkpt lat="43.7758" lon="5.16367">
        <ele>284.69</ele>
        <time>2013-09-30T09:40:19Z</time>
      </trkpt>
      <trkpt lat="43.7758" lon="5.16358">
        <ele>284.69</ele>
        <time>2013-09-30T09:40:24Z</time>
      </trkpt>
      <trkpt lat="43.77585" lon="5.16338">
        <ele>283.73</ele>
        <time>2013-09-30T09:40:39Z</time>
      </trkpt>
      <trkpt lat="43.77591" lon="5.16321">
        <ele>283.25</ele>
        <time>2013-09-30T09:40:53Z</time>
      </trkpt>
      <trkpt lat="43.77592" lon="5.16317">
        <ele>283.73</ele>
        <time>2013-09-30T09:40:55Z</time>
      </trkpt>
      <trkpt lat="43.77598" lon="5.16296">
        <ele>283.25</ele>
        <time>2013-09-30T09:41:08Z</time>
      </trkpt>
      <trkpt lat="43.77598" lon="5.16279">
        <ele>283.25</ele>
        <time>2013-09-30T09:41:21Z</time>
      </trkpt>
      <trkpt lat="43.77599" lon="5.16255">
        <ele>282.77</ele>
        <time>2013-09-30T09:41:38Z</time>
      </trkpt>
      <trkpt lat="43.77601" lon="5.16219">
        <ele>283.25</ele>
        <time>2013-09-30T09:42:03Z</time>
      </trkpt>
      <trkpt lat="43.77604" lon="5.16187">
        <ele>284.21</ele>
        <time>2013-09-30T09:42:26Z</time>
      </trkpt>
      <trkpt lat="43.77599" lon="5.16158">
        <ele>284.69</ele>
        <time>2013-09-30T09:42:45Z</time>
      </trkpt>
      <trkpt lat="43.776" lon="5.16155">
        <ele>284.69</ele>
        <time>2013-09-30T09:42:46Z</time>
      </trkpt>
      <trkpt lat="43.77594" lon="5.16134">
        <ele>285.17</ele>
        <time>2013-09-30T09:43:00Z</time>
      </trkpt>
      <trkpt lat="43.77593" lon="5.16129">
        <ele>285.17</ele>
        <time>2013-09-30T09:43:04Z</time>
      </trkpt>
      <trkpt lat="43.77588" lon="5.16119">
        <ele>284.21</ele>
        <time>2013-09-30T09:43:17Z</time>
      </trkpt>
      <trkpt lat="43.77588" lon="5.16119">
        <ele>284.69</ele>
        <time>2013-09-30T09:43:30Z</time>
      </trkpt>
      <trkpt lat="43.77591" lon="5.16111">
        <ele>283.73</ele>
        <time>2013-09-30T09:43:46Z</time>
      </trkpt>
      <trkpt lat="43.77591" lon="5.16107">
        <ele>283.73</ele>
        <time>2013-09-30T09:43:50Z</time>
      </trkpt>
      <trkpt lat="43.77593" lon="5.16087">
        <ele>282.28</ele>
        <time>2013-09-30T09:44:05Z</time>
      </trkpt>
      <trkpt lat="43.77595" lon="5.16071">
        <ele>281.8</ele>
        <time>2013-09-30T09:44:18Z</time>
      </trkpt>
      <trkpt lat="43.77597" lon="5.16062">
        <ele>281.8</ele>
        <time>2013-09-30T09:44:24Z</time>
      </trkpt>
      <trkpt lat="43.77601" lon="5.16048">
        <ele>280.84</ele>
        <time>2013-09-30T09:44:34Z</time>
      </trkpt>
      <trkpt lat="43.77611" lon="5.16028">
        <ele>280.36</ele>
        <time>2013-09-30T09:44:50Z</time>
      </trkpt>
      <trkpt lat="43.77614" lon="5.16024">
        <ele>279.88</ele>
        <time>2013-09-30T09:44:54Z</time>
      </trkpt>
      <trkpt lat="43.77627" lon="5.16013">
        <ele>278.92</ele>
        <time>2013-09-30T09:45:09Z</time>
      </trkpt>
      <trkpt lat="43.77642" lon="5.16007">
        <ele>277.48</ele>
        <time>2013-09-30T09:45:26Z</time>
      </trkpt>
      <trkpt lat="43.77655" lon="5.16004">
        <ele>277.96</ele>
        <time>2013-09-30T09:45:36Z</time>
      </trkpt>
      <trkpt lat="43.77658" lon="5.16003">
        <ele>277.48</ele>
        <time>2013-09-30T09:45:39Z</time>
      </trkpt>
      <trkpt lat="43.77677" lon="5.15996">
        <ele>276.52</ele>
        <time>2013-09-30T09:45:57Z</time>
      </trkpt>
      <trkpt lat="43.77691" lon="5.16002">
        <ele>276.04</ele>
        <time>2013-09-30T09:46:12Z</time>
      </trkpt>
      <trkpt lat="43.77695" lon="5.16004">
        <ele>276.04</ele>
        <time>2013-09-30T09:46:16Z</time>
      </trkpt>
      <trkpt lat="43.7771" lon="5.16018">
        <ele>275.07</ele>
        <time>2013-09-30T09:46:31Z</time>
      </trkpt>
      <trkpt lat="43.77721" lon="5.16032">
        <ele>273.63</ele>
        <time>2013-09-30T09:46:47Z</time>
      </trkpt>
      <trkpt lat="43.77728" lon="5.16038">
        <ele>272.67</ele>
        <time>2013-09-30T09:46:53Z</time>
      </trkpt>
      <trkpt lat="43.77738" lon="5.16059">
        <ele>273.63</ele>
        <time>2013-09-30T09:47:09Z</time>
      </trkpt>
      <trkpt lat="43.77749" lon="5.16071">
        <ele>272.19</ele>
        <time>2013-09-30T09:47:24Z</time>
      </trkpt>
      <trkpt lat="43.77768" lon="5.16072">
        <ele>271.23</ele>
        <time>2013-09-30T09:47:39Z</time>
      </trkpt>
      <trkpt lat="43.77779" lon="5.1607">
        <ele>271.23</ele>
        <time>2013-09-30T09:47:52Z</time>
      </trkpt>
      <trkpt lat="43.77792" lon="5.16066">
        <ele>270.75</ele>
        <time>2013-09-30T09:48:07Z</time>
      </trkpt>
      <trkpt lat="43.77805" lon="5.16054">
        <ele>269.79</ele>
        <time>2013-09-30T09:48:22Z</time>
      </trkpt>
      <trkpt lat="43.778" lon="5.16041">
        <ele>269.79</ele>
        <time>2013-09-30T09:48:35Z</time>
      </trkpt>
      <trkpt lat="43.77794" lon="5.16039">
        <ele>269.79</ele>
        <time>2013-09-30T09:48:41Z</time>
      </trkpt>
      <trkpt lat="43.77783" lon="5.16032">
        <ele>269.79</ele>
        <time>2013-09-30T09:48:54Z</time>
      </trkpt>
      <trkpt lat="43.77769" lon="5.16022">
        <ele>270.75</ele>
        <time>2013-09-30T09:49:09Z</time>
      </trkpt>
      <trkpt lat="43.77764" lon="5.16011">
        <ele>270.75</ele>
        <time>2013-09-30T09:49:19Z</time>
      </trkpt>
      <trkpt lat="43.77759" lon="5.16006">
        <ele>270.75</ele>
        <time>2013-09-30T09:49:24Z</time>
      </trkpt>
      <trkpt lat="43.77749" lon="5.15984">
        <ele>271.23</ele>
        <time>2013-09-30T09:49:41Z</time>
      </trkpt>
      <trkpt lat="43.77748" lon="5.15979">
        <ele>271.23</ele>
        <time>2013-09-30T09:49:44Z</time>
      </trkpt>
      <trkpt lat="43.77742" lon="5.15957">
        <ele>272.19</ele>
        <time>2013-09-30T09:50:02Z</time>
      </trkpt>
      <trkpt lat="43.77734" lon="5.15936">
        <ele>272.19</ele>
        <time>2013-09-30T09:50:22Z</time>
      </trkpt>
      <trkpt lat="43.77731" lon="5.15928">
        <ele>272.19</ele>
        <time>2013-09-30T09:50:36Z</time>
      </trkpt>
      <trkpt lat="43.7773" lon="5.15927">
        <ele>272.67</ele>
        <time>2013-09-30T09:50:52Z</time>
      </trkpt>
      <trkpt lat="43.77731" lon="5.15921">
        <ele>271.71</ele>
        <time>2013-09-30T09:51:03Z</time>
      </trkpt>
      <trkpt lat="43.77739" lon="5.15906">
        <ele>271.23</ele>
        <time>2013-09-30T09:51:18Z</time>
      </trkpt>
      <trkpt lat="43.77755" lon="5.15899">
        <ele>269.79</ele>
        <time>2013-09-30T09:51:37Z</time>
      </trkpt>
      <trkpt lat="43.77771" lon="5.15902">
        <ele>269.79</ele>
        <time>2013-09-30T09:51:54Z</time>
      </trkpt>
      <trkpt lat="43.77779" lon="5.15894">
        <ele>269.31</ele>
        <time>2013-09-30T09:52:02Z</time>
      </trkpt>
      <trkpt lat="43.77782" lon="5.15884">
        <ele>269.31</ele>
        <time>2013-09-30T09:52:17Z</time>
      </trkpt>
      <trkpt lat="43.77787" lon="5.15876">
        <ele>268.83</ele>
        <time>2013-09-30T09:52:32Z</time>
      </trkpt>
      <trkpt lat="43.77792" lon="5.15867">
        <ele>268.35</ele>
        <time>2013-09-30T09:52:41Z</time>
      </trkpt>
      <trkpt lat="43.77804" lon="5.15855">
        <ele>266.9</ele>
        <time>2013-09-30T09:52:56Z</time>
      </trkpt>
      <trkpt lat="43.77817" lon="5.15843">
        <ele>266.42</ele>
        <time>2013-09-30T09:53:11Z</time>
      </trkpt>
      <trkpt lat="43.77831" lon="5.15837">
        <ele>265.46</ele>
        <time>2013-09-30T09:53:26Z</time>
      </trkpt>
      <trkpt lat="43.77842" lon="5.15831">
        <ele>265.46</ele>
        <time>2013-09-30T09:53:39Z</time>
      </trkpt>
      <trkpt lat="43.77853" lon="5.15822">
        <ele>264.98</ele>
        <time>2013-09-30T09:53:52Z</time>
      </trkpt>
      <trkpt lat="43.77857" lon="5.1582">
        <ele>264.5</ele>
        <time>2013-09-30T09:53:57Z</time>
      </trkpt>
      <trkpt lat="43.77869" lon="5.1581">
        <ele>263.54</ele>
        <time>2013-09-30T09:54:12Z</time>
      </trkpt>
      <trkpt lat="43.7788" lon="5.15796">
        <ele>263.06</ele>
        <time>2013-09-30T09:54:27Z</time>
      </trkpt>
      <trkpt lat="43.77899" lon="5.15789">
        <ele>262.58</ele>
        <time>2013-09-30T09:54:44Z</time>
      </trkpt>
      <trkpt lat="43.77919" lon="5.15795">
        <ele>261.14</ele>
        <time>2013-09-30T09:55:05Z</time>
      </trkpt>
      <trkpt lat="43.7792" lon="5.15795">
        <ele>261.14</ele>
        <time>2013-09-30T09:55:06Z</time>
      </trkpt>
      <trkpt lat="43.77938" lon="5.15803">
        <ele>260.17</ele>
        <time>2013-09-30T09:55:24Z</time>
      </trkpt>
      <trkpt lat="43.77958" lon="5.15812">
        <ele>260.17</ele>
        <time>2013-09-30T09:55:43Z</time>
      </trkpt>
      <trkpt lat="43.77976" lon="5.15816">
        <ele>259.21</ele>
        <time>2013-09-30T09:55:59Z</time>
      </trkpt>
      <trkpt lat="43.77992" lon="5.15819">
        <ele>258.73</ele>
        <time>2013-09-30T09:56:18Z</time>
      </trkpt>
      <trkpt lat="43.78004" lon="5.15806">
        <ele>258.73</ele>
        <time>2013-09-30T09:56:33Z</time>
      </trkpt>
      <trkpt lat="43.77999" lon="5.15799">
        <ele>257.77</ele>
        <time>2013-09-30T09:56:45Z</time>
      </trkpt>
      <trkpt lat="43.7799" lon="5.15797">
        <ele>257.77</ele>
        <time>2013-09-30T09:56:57Z</time>
      </trkpt>
      <trkpt lat="43.77978" lon="5.1579">
        <ele>256.81</ele>
        <time>2013-09-30T09:57:11Z</time>
      </trkpt>
      <trkpt lat="43.77974" lon="5.15788">
        <ele>256.81</ele>
        <time>2013-09-30T09:57:14Z</time>
      </trkpt>
      <trkpt lat="43.77959" lon="5.15782">
        <ele>254.89</ele>
        <time>2013-09-30T09:57:28Z</time>
      </trkpt>
      <trkpt lat="43.77947" lon="5.15773">
        <ele>254.41</ele>
        <time>2013-09-30T09:57:41Z</time>
      </trkpt>
      <trkpt lat="43.7794" lon="5.1577">
        <ele>253.93</ele>
        <time>2013-09-30T09:57:49Z</time>
      </trkpt>
      <trkpt lat="43.77925" lon="5.15765">
        <ele>253.44</ele>
        <time>2013-09-30T09:58:02Z</time>
      </trkpt>
      <trkpt lat="43.77914" lon="5.15764">
        <ele>252.96</ele>
        <time>2013-09-30T09:58:15Z</time>
      </trkpt>
      <trkpt lat="43.77907" lon="5.15759">
        <ele>252.48</ele>
        <time>2013-09-30T09:58:24Z</time>
      </trkpt>
      <trkpt lat="43.77896" lon="5.15752">
        <ele>251.04</ele>
        <time>2013-09-30T09:58:38Z</time>
      </trkpt>
      <trkpt lat="43.77886" lon="5.15752">
        <ele>251.04</ele>
        <time>2013-09-30T09:58:50Z</time>
      </trkpt>
      <trkpt lat="43.77875" lon="5.15754">
        <ele>250.56</ele>
        <time>2013-09-30T09:58:57Z</time>
      </trkpt>
      <trkpt lat="43.77868" lon="5.15756">
        <ele>250.08</ele>
        <time>2013-09-30T09:59:02Z</time>
      </trkpt>
      <trkpt lat="43.77864" lon="5.15756">
        <ele>250.08</ele>
        <time>2013-09-30T09:59:04Z</time>
      </trkpt>
      <trkpt lat="43.7786" lon="5.15759">
        <ele>249.6</ele>
        <time>2013-09-30T09:59:09Z</time>
      </trkpt>
      <trkpt lat="43.7785" lon="5.15759">
        <ele>248.64</ele>
        <time>2013-09-30T09:59:26Z</time>
      </trkpt>
      <trkpt lat="43.77849" lon="5.1576">
        <ele>248.64</ele>
        <time>2013-09-30T09:59:27Z</time>
      </trkpt>
      <trkpt lat="43.77842" lon="5.15761">
        <ele>248.16</ele>
        <time>2013-09-30T09:59:31Z</time>
      </trkpt>
      <trkpt lat="43.77825" lon="5.15772">
        <ele>247.68</ele>
        <time>2013-09-30T09:59:45Z</time>
      </trkpt>
      <trkpt lat="43.77824" lon="5.15773">
        <ele>247.68</ele>
        <time>2013-09-30T09:59:46Z</time>
      </trkpt>
      <trkpt lat="43.77817" lon="5.15777">
        <ele>248.16</ele>
        <time>2013-09-30T09:59:58Z</time>
      </trkpt>
      <trkpt lat="43.77812" lon="5.15777">
        <ele>248.16</ele>
        <time>2013-09-30T10:00:15Z</time>
      </trkpt>
      <trkpt lat="43.77814" lon="5.15773">
        <ele>248.64</ele>
        <time>2013-09-30T10:00:31Z</time>
      </trkpt>
      <trkpt lat="43.77816" lon="5.1577">
        <ele>248.64</ele>
        <time>2013-09-30T10:00:52Z</time>
      </trkpt>
      <trkpt lat="43.77813" lon="5.15771">
        <ele>248.16</ele>
        <time>2013-09-30T10:01:13Z</time>
      </trkpt>
      <trkpt lat="43.77815" lon="5.15772">
        <ele>248.16</ele>
        <time>2013-09-30T10:01:31Z</time>
      </trkpt>
      <trkpt lat="43.77816" lon="5.15773">
        <ele>248.16</ele>
        <time>2013-09-30T10:01:46Z</time>
      </trkpt>
      <trkpt lat="43.77813" lon="5.1577">
        <ele>247.68</ele>
        <time>2013-09-30T10:02:03Z</time>
      </trkpt>
      <trkpt lat="43.77811" lon="5.15762">
        <ele>249.12</ele>
        <time>2013-09-30T10:02:17Z</time>
      </trkpt>
      <trkpt lat="43.77812" lon="5.15748">
        <ele>251.52</ele>
        <time>2013-09-30T10:02:37Z</time>
      </trkpt>
      <trkpt lat="43.7782" lon="5.15736">
        <ele>252</ele>
        <time>2013-09-30T10:02:53Z</time>
      </trkpt>
      <trkpt lat="43.77825" lon="5.1573">
        <ele>253.93</ele>
        <time>2013-09-30T10:03:08Z</time>
      </trkpt>
      <trkpt lat="43.77832" lon="5.15716">
        <ele>256.33</ele>
        <time>2013-09-30T10:03:25Z</time>
      </trkpt>
      <trkpt lat="43.77836" lon="5.15688">
        <ele>258.73</ele>
        <time>2013-09-30T10:03:41Z</time>
      </trkpt>
      <trkpt lat="43.77834" lon="5.15689">
        <ele>258.73</ele>
        <time>2013-09-30T10:03:56Z</time>
      </trkpt>
      <trkpt lat="43.77832" lon="5.15679">
        <ele>261.14</ele>
        <time>2013-09-30T10:04:13Z</time>
      </trkpt>
      <trkpt lat="43.77833" lon="5.15668">
        <ele>263.06</ele>
        <time>2013-09-30T10:04:28Z</time>
      </trkpt>
      <trkpt lat="43.77836" lon="5.15657">
        <ele>264.98</ele>
        <time>2013-09-30T10:04:43Z</time>
      </trkpt>
      <trkpt lat="43.77839" lon="5.15646">
        <ele>266.9</ele>
        <time>2013-09-30T10:04:58Z</time>
      </trkpt>
      <trkpt lat="43.77841" lon="5.15633">
        <ele>270.27</ele>
        <time>2013-09-30T10:05:16Z</time>
      </trkpt>
      <trkpt lat="43.77842" lon="5.15621">
        <ele>272.19</ele>
        <time>2013-09-30T10:05:30Z</time>
      </trkpt>
      <trkpt lat="43.77844" lon="5.15614">
        <ele>274.11</ele>
        <time>2013-09-30T10:05:46Z</time>
      </trkpt>
      <trkpt lat="43.7785" lon="5.15604">
        <ele>275.56</ele>
        <time>2013-09-30T10:06:04Z</time>
      </trkpt>
      <trkpt lat="43.7785" lon="5.15604">
        <ele>275.07</ele>
        <time>2013-09-30T10:06:29Z</time>
      </trkpt>
      <trkpt lat="43.7785" lon="5.15604">
        <ele>275.07</ele>
        <time>2013-09-30T10:06:45Z</time>
      </trkpt>
      <trkpt lat="43.77851" lon="5.15606">
        <ele>274.59</ele>
        <time>2013-09-30T10:07:15Z</time>
      </trkpt>
      <trkpt lat="43.77848" lon="5.15605">
        <ele>275.07</ele>
        <time>2013-09-30T10:07:36Z</time>
      </trkpt>
      <trkpt lat="43.77847" lon="5.15604">
        <ele>274.59</ele>
        <time>2013-09-30T10:07:55Z</time>
      </trkpt>
      <trkpt lat="43.7785" lon="5.15604">
        <ele>276.04</ele>
        <time>2013-09-30T10:08:15Z</time>
      </trkpt>
      <trkpt lat="43.77853" lon="5.15595">
        <ele>278.92</ele>
        <time>2013-09-30T10:08:28Z</time>
      </trkpt>
      <trkpt lat="43.77855" lon="5.15586">
        <ele>281.32</ele>
        <time>2013-09-30T10:08:41Z</time>
      </trkpt>
      <trkpt lat="43.77858" lon="5.15574">
        <ele>282.77</ele>
        <time>2013-09-30T10:08:54Z</time>
      </trkpt>
      <trkpt lat="43.77853" lon="5.15563">
        <ele>284.69</ele>
        <time>2013-09-30T10:09:07Z</time>
      </trkpt>
      <trkpt lat="43.77854" lon="5.15552">
        <ele>287.09</ele>
        <time>2013-09-30T10:09:22Z</time>
      </trkpt>
      <trkpt lat="43.77855" lon="5.1554">
        <ele>289.49</ele>
        <time>2013-09-30T10:09:36Z</time>
      </trkpt>
      <trkpt lat="43.7785" lon="5.1554">
        <ele>290.46</ele>
        <time>2013-09-30T10:09:48Z</time>
      </trkpt>
      <trkpt lat="43.77841" lon="5.15547">
        <ele>292.38</ele>
        <time>2013-09-30T10:10:02Z</time>
      </trkpt>
      <trkpt lat="43.77833" lon="5.15553">
        <ele>295.26</ele>
        <time>2013-09-30T10:10:16Z</time>
      </trkpt>
      <trkpt lat="43.77826" lon="5.15557">
        <ele>297.18</ele>
        <time>2013-09-30T10:10:30Z</time>
      </trkpt>
      <trkpt lat="43.77818" lon="5.15564">
        <ele>299.11</ele>
        <time>2013-09-30T10:10:45Z</time>
      </trkpt>
      <trkpt lat="43.77812" lon="5.15572">
        <ele>298.63</ele>
        <time>2013-09-30T10:11:00Z</time>
      </trkpt>
      <trkpt lat="43.77812" lon="5.15572">
        <ele>299.11</ele>
        <time>2013-09-30T10:11:19Z</time>
      </trkpt>
      <trkpt lat="43.77809" lon="5.15572">
        <ele>298.63</ele>
        <time>2013-09-30T10:11:40Z</time>
      </trkpt>
      <trkpt lat="43.77806" lon="5.15567">
        <ele>298.63</ele>
        <time>2013-09-30T10:12:07Z</time>
      </trkpt>
      <trkpt lat="43.77808" lon="5.15569">
        <ele>298.15</ele>
        <time>2013-09-30T10:12:26Z</time>
      </trkpt>
      <trkpt lat="43.77802" lon="5.1557">
        <ele>297.67</ele>
        <time>2013-09-30T10:12:33Z</time>
      </trkpt>
      <trkpt lat="43.7779" lon="5.15569">
        <ele>296.7</ele>
        <time>2013-09-30T10:12:48Z</time>
      </trkpt>
      <trkpt lat="43.77777" lon="5.15567">
        <ele>295.26</ele>
        <time>2013-09-30T10:13:02Z</time>
      </trkpt>
      <trkpt lat="43.77761" lon="5.15567">
        <ele>293.34</ele>
        <time>2013-09-30T10:13:19Z</time>
      </trkpt>
      <trkpt lat="43.77751" lon="5.15564">
        <ele>293.82</ele>
        <time>2013-09-30T10:13:31Z</time>
      </trkpt>
      <trkpt lat="43.77734" lon="5.1556">
        <ele>293.34</ele>
        <time>2013-09-30T10:13:50Z</time>
      </trkpt>
      <trkpt lat="43.77718" lon="5.15558">
        <ele>292.86</ele>
        <time>2013-09-30T10:14:09Z</time>
      </trkpt>
      <trkpt lat="43.77702" lon="5.15556">
        <ele>293.34</ele>
        <time>2013-09-30T10:14:26Z</time>
      </trkpt>
      <trkpt lat="43.77684" lon="5.15546">
        <ele>293.34</ele>
        <time>2013-09-30T10:14:47Z</time>
      </trkpt>
      <trkpt lat="43.77668" lon="5.15538">
        <ele>291.9</ele>
        <time>2013-09-30T10:15:02Z</time>
      </trkpt>
      <trkpt lat="43.7766" lon="5.15526">
        <ele>290.46</ele>
        <time>2013-09-30T10:15:17Z</time>
      </trkpt>
      <trkpt lat="43.77658" lon="5.15506">
        <ele>289.49</ele>
        <time>2013-09-30T10:15:32Z</time>
      </trkpt>
      <trkpt lat="43.77662" lon="5.15492">
        <ele>288.53</ele>
        <time>2013-09-30T10:15:46Z</time>
      </trkpt>
      <trkpt lat="43.77663" lon="5.15477">
        <ele>287.57</ele>
        <time>2013-09-30T10:16:00Z</time>
      </trkpt>
      <trkpt lat="43.77665" lon="5.15468">
        <ele>286.13</ele>
        <time>2013-09-30T10:16:13Z</time>
      </trkpt>
      <trkpt lat="43.77668" lon="5.1545">
        <ele>284.69</ele>
        <time>2013-09-30T10:16:27Z</time>
      </trkpt>
      <trkpt lat="43.77669" lon="5.15436">
        <ele>283.25</ele>
        <time>2013-09-30T10:16:38Z</time>
      </trkpt>
      <trkpt lat="43.77672" lon="5.15418">
        <ele>282.28</ele>
        <time>2013-09-30T10:16:50Z</time>
      </trkpt>
      <trkpt lat="43.77674" lon="5.15408">
        <ele>281.8</ele>
        <time>2013-09-30T10:17:02Z</time>
      </trkpt>
      <trkpt lat="43.77674" lon="5.15391">
        <ele>281.32</ele>
        <time>2013-09-30T10:17:17Z</time>
      </trkpt>
      <trkpt lat="43.77679" lon="5.15378">
        <ele>282.28</ele>
        <time>2013-09-30T10:17:32Z</time>
      </trkpt>
      <trkpt lat="43.77683" lon="5.15373">
        <ele>282.77</ele>
        <time>2013-09-30T10:17:45Z</time>
      </trkpt>
      <trkpt lat="43.77683" lon="5.15372">
        <ele>282.77</ele>
        <time>2013-09-30T10:18:04Z</time>
      </trkpt>
      <trkpt lat="43.77683" lon="5.15368">
        <ele>282.77</ele>
        <time>2013-09-30T10:18:25Z</time>
      </trkpt>
      <trkpt lat="43.77684" lon="5.15364">
        <ele>282.77</ele>
        <time>2013-09-30T10:18:45Z</time>
      </trkpt>
      <trkpt lat="43.77683" lon="5.15362">
        <ele>282.77</ele>
        <time>2013-09-30T10:18:47Z</time>
      </trkpt>
      <trkpt lat="43.77687" lon="5.15356">
        <ele>283.25</ele>
        <time>2013-09-30T10:19:02Z</time>
      </trkpt>
      <trkpt lat="43.77689" lon="5.15354">
        <ele>283.25</ele>
        <time>2013-09-30T10:19:12Z</time>
      </trkpt>
      <trkpt lat="43.77689" lon="5.15333">
        <ele>282.77</ele>
        <time>2013-09-30T10:19:25Z</time>
      </trkpt>
      <trkpt lat="43.77689" lon="5.15326">
        <ele>282.77</ele>
        <time>2013-09-30T10:19:30Z</time>
      </trkpt>
      <trkpt lat="43.77688" lon="5.15306">
        <ele>283.25</ele>
        <time>2013-09-30T10:19:45Z</time>
      </trkpt>
      <trkpt lat="43.77689" lon="5.15277">
        <ele>282.77</ele>
        <time>2013-09-30T10:20:05Z</time>
      </trkpt>
      <trkpt lat="43.77689" lon="5.15275">
        <ele>282.28</ele>
        <time>2013-09-30T10:20:06Z</time>
      </trkpt>
      <trkpt lat="43.77688" lon="5.15268">
        <ele>283.25</ele>
        <time>2013-09-30T10:20:12Z</time>
      </trkpt>
      <trkpt lat="43.77677" lon="5.15248">
        <ele>281.8</ele>
        <time>2013-09-30T10:20:29Z</time>
      </trkpt>
      <trkpt lat="43.77675" lon="5.15228">
        <ele>281.8</ele>
        <time>2013-09-30T10:20:43Z</time>
      </trkpt>
      <trkpt lat="43.77675" lon="5.15226">
        <ele>281.8</ele>
        <time>2013-09-30T10:20:44Z</time>
      </trkpt>
      <trkpt lat="43.77673" lon="5.15197">
        <ele>280.84</ele>
        <time>2013-09-30T10:21:05Z</time>
      </trkpt>
      <trkpt lat="43.77672" lon="5.15192">
        <ele>281.32</ele>
        <time>2013-09-30T10:21:08Z</time>
      </trkpt>
      <trkpt lat="43.7767" lon="5.15167">
        <ele>278.92</ele>
        <time>2013-09-30T10:21:25Z</time>
      </trkpt>
      <trkpt lat="43.77659" lon="5.15151">
        <ele>277.48</ele>
        <time>2013-09-30T10:21:42Z</time>
      </trkpt>
      <trkpt lat="43.77655" lon="5.15139">
        <ele>276.52</ele>
        <time>2013-09-30T10:21:52Z</time>
      </trkpt>
      <trkpt lat="43.77654" lon="5.15133">
        <ele>276.04</ele>
        <time>2013-09-30T10:21:56Z</time>
      </trkpt>
      <trkpt lat="43.77659" lon="5.15119">
        <ele>276.04</ele>
        <time>2013-09-30T10:22:05Z</time>
      </trkpt>
      <trkpt lat="43.7766" lon="5.15113">
        <ele>276.04</ele>
        <time>2013-09-30T10:22:09Z</time>
      </trkpt>
      <trkpt lat="43.77663" lon="5.15091">
        <ele>275.07</ele>
        <time>2013-09-30T10:22:24Z</time>
      </trkpt>
      <trkpt lat="43.77663" lon="5.15087">
        <ele>275.56</ele>
        <time>2013-09-30T10:22:26Z</time>
      </trkpt>
      <trkpt lat="43.77667" lon="5.15064">
        <ele>275.56</ele>
        <time>2013-09-30T10:22:43Z</time>
      </trkpt>
      <trkpt lat="43.7767" lon="5.15048">
        <ele>277</ele>
        <time>2013-09-30T10:22:56Z</time>
      </trkpt>
      <trkpt lat="43.77675" lon="5.15039">
        <ele>277.96</ele>
        <time>2013-09-30T10:23:05Z</time>
      </trkpt>
      <trkpt lat="43.77676" lon="5.15021">
        <ele>280.36</ele>
        <time>2013-09-30T10:23:20Z</time>
      </trkpt>
      <trkpt lat="43.77686" lon="5.15">
        <ele>279.88</ele>
        <time>2013-09-30T10:23:36Z</time>
      </trkpt>
      <trkpt lat="43.77684" lon="5.14977">
        <ele>278.92</ele>
        <time>2013-09-30T10:23:51Z</time>
      </trkpt>
      <trkpt lat="43.77682" lon="5.14952">
        <ele>278.92</ele>
        <time>2013-09-30T10:24:06Z</time>
      </trkpt>
      <trkpt lat="43.7768" lon="5.14923">
        <ele>279.4</ele>
        <time>2013-09-30T10:24:24Z</time>
      </trkpt>
      <trkpt lat="43.77677" lon="5.14899">
        <ele>280.36</ele>
        <time>2013-09-30T10:24:41Z</time>
      </trkpt>
      <trkpt lat="43.77677" lon="5.14873">
        <ele>281.8</ele>
        <time>2013-09-30T10:24:57Z</time>
      </trkpt>
      <trkpt lat="43.77679" lon="5.14853">
        <ele>282.28</ele>
        <time>2013-09-30T10:25:11Z</time>
      </trkpt>
      <trkpt lat="43.7768" lon="5.1483">
        <ele>282.28</ele>
        <time>2013-09-30T10:25:27Z</time>
      </trkpt>
      <trkpt lat="43.77683" lon="5.1481">
        <ele>283.25</ele>
        <time>2013-09-30T10:25:41Z</time>
      </trkpt>
      <trkpt lat="43.77684" lon="5.14805">
        <ele>283.25</ele>
        <time>2013-09-30T10:25:56Z</time>
      </trkpt>
      <trkpt lat="43.77684" lon="5.14812">
        <ele>283.25</ele>
        <time>2013-09-30T10:26:18Z</time>
      </trkpt>
      <trkpt lat="43.77683" lon="5.14784">
        <ele>283.25</ele>
        <time>2013-09-30T10:26:37Z</time>
      </trkpt>
      <trkpt lat="43.77683" lon="5.14775">
        <ele>283.73</ele>
        <time>2013-09-30T10:26:54Z</time>
      </trkpt>
      <trkpt lat="43.7769" lon="5.14773">
        <ele>284.21</ele>
        <time>2013-09-30T10:27:18Z</time>
      </trkpt>
      <trkpt lat="43.77689" lon="5.14775">
        <ele>284.21</ele>
        <time>2013-09-30T10:27:43Z</time>
      </trkpt>
      <trkpt lat="43.77684" lon="5.14759">
        <ele>286.13</ele>
        <time>2013-09-30T10:28:00Z</time>
      </trkpt>
      <trkpt lat="43.77683" lon="5.14739">
        <ele>288.05</ele>
        <time>2013-09-30T10:28:14Z</time>
      </trkpt>
      <trkpt lat="43.77681" lon="5.14722">
        <ele>289.01</ele>
        <time>2013-09-30T10:28:27Z</time>
      </trkpt>
      <trkpt lat="43.7768" lon="5.14721">
        <ele>289.49</ele>
        <time>2013-09-30T10:28:28Z</time>
      </trkpt>
      <trkpt lat="43.77676" lon="5.14701">
        <ele>290.94</ele>
        <time>2013-09-30T10:28:43Z</time>
      </trkpt>
      <trkpt lat="43.77672" lon="5.14682">
        <ele>292.38</ele>
        <time>2013-09-30T10:28:58Z</time>
      </trkpt>
      <trkpt lat="43.77666" lon="5.14665">
        <ele>293.82</ele>
        <time>2013-09-30T10:29:13Z</time>
      </trkpt>
      <trkpt lat="43.77665" lon="5.14664">
        <ele>294.3</ele>
        <time>2013-09-30T10:29:14Z</time>
      </trkpt>
      <trkpt lat="43.77657" lon="5.14643">
        <ele>295.26</ele>
        <time>2013-09-30T10:29:31Z</time>
      </trkpt>
      <trkpt lat="43.77654" lon="5.14631">
        <ele>295.74</ele>
        <time>2013-09-30T10:29:40Z</time>
      </trkpt>
      <trkpt lat="43.77651" lon="5.14625">
        <ele>296.22</ele>
        <time>2013-09-30T10:29:46Z</time>
      </trkpt>
      <trkpt lat="43.77644" lon="5.14608">
        <ele>297.18</ele>
        <time>2013-09-30T10:30:02Z</time>
      </trkpt>
      <trkpt lat="43.77639" lon="5.14602">
        <ele>297.18</ele>
        <time>2013-09-30T10:30:09Z</time>
      </trkpt>
      <trkpt lat="43.77634" lon="5.14581">
        <ele>298.15</ele>
        <time>2013-09-30T10:30:25Z</time>
      </trkpt>
      <trkpt lat="43.77636" lon="5.14567">
        <ele>299.11</ele>
        <time>2013-09-30T10:30:38Z</time>
      </trkpt>
      <trkpt lat="43.77643" lon="5.14556">
        <ele>300.07</ele>
        <time>2013-09-30T10:30:50Z</time>
      </trkpt>
      <trkpt lat="43.77644" lon="5.14543">
        <ele>301.03</ele>
        <time>2013-09-30T10:31:01Z</time>
      </trkpt>
      <trkpt lat="43.77641" lon="5.14535">
        <ele>301.51</ele>
        <time>2013-09-30T10:31:06Z</time>
      </trkpt>
      <trkpt lat="43.77642" lon="5.14527">
        <ele>302.47</ele>
        <time>2013-09-30T10:31:13Z</time>
      </trkpt>
      <trkpt lat="43.77645" lon="5.14513">
        <ele>302.47</ele>
        <time>2013-09-30T10:31:23Z</time>
      </trkpt>
      <trkpt lat="43.77648" lon="5.14496">
        <ele>304.39</ele>
        <time>2013-09-30T10:31:36Z</time>
      </trkpt>
      <trkpt lat="43.77652" lon="5.14478">
        <ele>305.84</ele>
        <time>2013-09-30T10:31:50Z</time>
      </trkpt>
      <trkpt lat="43.77654" lon="5.14465">
        <ele>306.32</ele>
        <time>2013-09-30T10:32:02Z</time>
      </trkpt>
      <trkpt lat="43.77655" lon="5.14456">
        <ele>306.8</ele>
        <time>2013-09-30T10:32:17Z</time>
      </trkpt>
      <trkpt lat="43.7765" lon="5.14453">
        <ele>306.8</ele>
        <time>2013-09-30T10:32:43Z</time>
      </trkpt>
      <trkpt lat="43.77656" lon="5.14445">
        <ele>308.24</ele>
        <time>2013-09-30T10:32:56Z</time>
      </trkpt>
      <trkpt lat="43.77658" lon="5.14437">
        <ele>309.2</ele>
        <time>2013-09-30T10:33:03Z</time>
      </trkpt>
      <trkpt lat="43.77662" lon="5.14427">
        <ele>310.16</ele>
        <time>2013-09-30T10:33:15Z</time>
      </trkpt>
      <trkpt lat="43.77663" lon="5.1442">
        <ele>310.16</ele>
        <time>2013-09-30T10:33:26Z</time>
      </trkpt>
      <trkpt lat="43.77666" lon="5.14411">
        <ele>311.12</ele>
        <time>2013-09-30T10:33:44Z</time>
      </trkpt>
      <trkpt lat="43.77668" lon="5.14392">
        <ele>311.6</ele>
        <time>2013-09-30T10:33:56Z</time>
      </trkpt>
      <trkpt lat="43.77671" lon="5.14378">
        <ele>313.05</ele>
        <time>2013-09-30T10:34:09Z</time>
      </trkpt>
      <trkpt lat="43.77673" lon="5.14363">
        <ele>313.05</ele>
        <time>2013-09-30T10:34:22Z</time>
      </trkpt>
      <trkpt lat="43.77676" lon="5.14347">
        <ele>314.01</ele>
        <time>2013-09-30T10:34:35Z</time>
      </trkpt>
      <trkpt lat="43.77676" lon="5.14343">
        <ele>314.01</ele>
        <time>2013-09-30T10:34:38Z</time>
      </trkpt>
      <trkpt lat="43.77685" lon="5.14334">
        <ele>315.45</ele>
        <time>2013-09-30T10:34:52Z</time>
      </trkpt>
      <trkpt lat="43.77697" lon="5.14341">
        <ele>315.93</ele>
        <time>2013-09-30T10:35:07Z</time>
      </trkpt>
      <trkpt lat="43.77702" lon="5.14345">
        <ele>316.41</ele>
        <time>2013-09-30T10:35:24Z</time>
      </trkpt>
      <trkpt lat="43.77697" lon="5.14344">
        <ele>316.41</ele>
        <time>2013-09-30T10:35:42Z</time>
      </trkpt>
      <trkpt lat="43.77697" lon="5.14345">
        <ele>316.41</ele>
        <time>2013-09-30T10:35:56Z</time>
      </trkpt>
      <trkpt lat="43.77689" lon="5.14338">
        <ele>324.1</ele>
        <time>2013-09-30T11:21:44Z</time>
      </trkpt>
      <trkpt lat="43.7769" lon="5.14338">
        <ele>324.1</ele>
        <time>2013-09-30T11:21:45Z</time>
      </trkpt>
      <trkpt lat="43.77694" lon="5.14339">
        <ele>324.1</ele>
        <time>2013-09-30T11:22:15Z</time>
      </trkpt>
      <trkpt lat="43.77696" lon="5.14339">
        <ele>325.06</ele>
        <time>2013-09-30T11:22:36Z</time>
      </trkpt>
      <trkpt lat="43.77701" lon="5.14343">
        <ele>322.18</ele>
        <time>2013-09-30T11:23:07Z</time>
      </trkpt>
      <trkpt lat="43.77699" lon="5.14342">
        <ele>318.81</ele>
        <time>2013-09-30T11:23:33Z</time>
      </trkpt>
      <trkpt lat="43.77698" lon="5.14341">
        <ele>318.33</ele>
        <time>2013-09-30T11:24:03Z</time>
      </trkpt>
      <trkpt lat="43.777" lon="5.14349">
        <ele>318.81</ele>
        <time>2013-09-30T11:24:38Z</time>
      </trkpt>
      <trkpt lat="43.77697" lon="5.14344">
        <ele>318.81</ele>
        <time>2013-09-30T11:25:04Z</time>
      </trkpt>
      <trkpt lat="43.77697" lon="5.14344">
        <ele>319.3</ele>
        <time>2013-09-30T11:25:25Z</time>
      </trkpt>
      <trkpt lat="43.77698" lon="5.14342">
        <ele>319.3</ele>
        <time>2013-09-30T11:25:52Z</time>
      </trkpt>
      <trkpt lat="43.77693" lon="5.14344">
        <ele>318.81</ele>
        <time>2013-09-30T11:26:09Z</time>
      </trkpt>
      <trkpt lat="43.77699" lon="5.14346">
        <ele>318.81</ele>
        <time>2013-09-30T11:26:31Z</time>
      </trkpt>
      <trkpt lat="43.77692" lon="5.14342">
        <ele>318.81</ele>
        <time>2013-09-30T11:26:52Z</time>
      </trkpt>
      <trkpt lat="43.77689" lon="5.14341">
        <ele>319.3</ele>
        <time>2013-09-30T11:27:10Z</time>
      </trkpt>
      <trkpt lat="43.77693" lon="5.14341">
        <ele>319.3</ele>
        <time>2013-09-30T11:27:36Z</time>
      </trkpt>
      <trkpt lat="43.77694" lon="5.14342">
        <ele>319.78</ele>
        <time>2013-09-30T11:28:10Z</time>
      </trkpt>
      <trkpt lat="43.77696" lon="5.14347">
        <ele>319.78</ele>
        <time>2013-09-30T11:28:27Z</time>
      </trkpt>
      <trkpt lat="43.77694" lon="5.14343">
        <ele>319.3</ele>
        <time>2013-09-30T11:28:43Z</time>
      </trkpt>
      <trkpt lat="43.77695" lon="5.14341">
        <ele>319.78</ele>
        <time>2013-09-30T11:29:01Z</time>
      </trkpt>
      <trkpt lat="43.77696" lon="5.1434">
        <ele>319.78</ele>
        <time>2013-09-30T11:29:16Z</time>
      </trkpt>
      <trkpt lat="43.77698" lon="5.14346">
        <ele>319.78</ele>
        <time>2013-09-30T11:29:46Z</time>
      </trkpt>
      <trkpt lat="43.77699" lon="5.14344">
        <ele>319.3</ele>
        <time>2013-09-30T11:30:03Z</time>
      </trkpt>
      <trkpt lat="43.777" lon="5.14349">
        <ele>319.78</ele>
        <time>2013-09-30T11:30:29Z</time>
      </trkpt>
      <trkpt lat="43.77698" lon="5.14343">
        <ele>319.78</ele>
        <time>2013-09-30T11:30:43Z</time>
      </trkpt>
      <trkpt lat="43.77696" lon="5.14341">
        <ele>319.78</ele>
        <time>2013-09-30T11:31:03Z</time>
      </trkpt>
      <trkpt lat="43.77691" lon="5.14337">
        <ele>319.78</ele>
        <time>2013-09-30T11:31:15Z</time>
      </trkpt>
      <trkpt lat="43.77687" lon="5.14335">
        <ele>318.81</ele>
        <time>2013-09-30T11:31:28Z</time>
      </trkpt>
      <trkpt lat="43.77681" lon="5.14334">
        <ele>318.33</ele>
        <time>2013-09-30T11:31:45Z</time>
      </trkpt>
      <trkpt lat="43.77672" lon="5.14328">
        <ele>318.33</ele>
        <time>2013-09-30T11:32:00Z</time>
      </trkpt>
      <trkpt lat="43.77667" lon="5.14324">
        <ele>317.85</ele>
        <time>2013-09-30T11:32:14Z</time>
      </trkpt>
      <trkpt lat="43.7766" lon="5.14319">
        <ele>317.85</ele>
        <time>2013-09-30T11:32:31Z</time>
      </trkpt>
      <trkpt lat="43.77651" lon="5.14307">
        <ele>317.37</ele>
        <time>2013-09-30T11:32:50Z</time>
      </trkpt>
      <trkpt lat="43.7764" lon="5.14303">
        <ele>316.41</ele>
        <time>2013-09-30T11:33:07Z</time>
      </trkpt>
      <trkpt lat="43.77627" lon="5.143">
        <ele>315.93</ele>
        <time>2013-09-30T11:33:23Z</time>
      </trkpt>
      <trkpt lat="43.77619" lon="5.143">
        <ele>315.45</ele>
        <time>2013-09-30T11:33:36Z</time>
      </trkpt>
      <trkpt lat="43.77617" lon="5.14297">
        <ele>315.93</ele>
        <time>2013-09-30T11:33:54Z</time>
      </trkpt>
      <trkpt lat="43.77617" lon="5.14295">
        <ele>315.45</ele>
        <time>2013-09-30T11:34:09Z</time>
      </trkpt>
      <trkpt lat="43.77613" lon="5.14293">
        <ele>314.97</ele>
        <time>2013-09-30T11:34:15Z</time>
      </trkpt>
      <trkpt lat="43.77599" lon="5.14293">
        <ele>314.49</ele>
        <time>2013-09-30T11:34:32Z</time>
      </trkpt>
      <trkpt lat="43.77588" lon="5.14298">
        <ele>314.97</ele>
        <time>2013-09-30T11:34:45Z</time>
      </trkpt>
      <trkpt lat="43.77582" lon="5.143">
        <ele>314.49</ele>
        <time>2013-09-30T11:34:52Z</time>
      </trkpt>
      <trkpt lat="43.77576" lon="5.14299">
        <ele>314.01</ele>
        <time>2013-09-30T11:34:58Z</time>
      </trkpt>
      <trkpt lat="43.77561" lon="5.14299">
        <ele>314.01</ele>
        <time>2013-09-30T11:35:11Z</time>
      </trkpt>
      <trkpt lat="43.77545" lon="5.14306">
        <ele>314.97</ele>
        <time>2013-09-30T11:35:26Z</time>
      </trkpt>
      <trkpt lat="43.77529" lon="5.14309">
        <ele>315.45</ele>
        <time>2013-09-30T11:35:41Z</time>
      </trkpt>
      <trkpt lat="43.77517" lon="5.14312">
        <ele>315.93</ele>
        <time>2013-09-30T11:35:55Z</time>
      </trkpt>
      <trkpt lat="43.77513" lon="5.14313">
        <ele>315.93</ele>
        <time>2013-09-30T11:35:58Z</time>
      </trkpt>
      <trkpt lat="43.775" lon="5.14317">
        <ele>315.93</ele>
        <time>2013-09-30T11:36:10Z</time>
      </trkpt>
      <trkpt lat="43.77498" lon="5.14318">
        <ele>316.41</ele>
        <time>2013-09-30T11:36:12Z</time>
      </trkpt>
      <trkpt lat="43.77486" lon="5.14324">
        <ele>317.37</ele>
        <time>2013-09-30T11:36:25Z</time>
      </trkpt>
      <trkpt lat="43.77475" lon="5.14332">
        <ele>318.33</ele>
        <time>2013-09-30T11:36:39Z</time>
      </trkpt>
      <trkpt lat="43.77477" lon="5.14333">
        <ele>318.33</ele>
        <time>2013-09-30T11:37:00Z</time>
      </trkpt>
      <trkpt lat="43.77472" lon="5.14337">
        <ele>318.81</ele>
        <time>2013-09-30T11:37:06Z</time>
      </trkpt>
      <trkpt lat="43.7747" lon="5.1434">
        <ele>318.81</ele>
        <time>2013-09-30T11:37:08Z</time>
      </trkpt>
      <trkpt lat="43.77457" lon="5.14344">
        <ele>320.74</ele>
        <time>2013-09-30T11:37:24Z</time>
      </trkpt>
      <trkpt lat="43.77448" lon="5.14352">
        <ele>321.7</ele>
        <time>2013-09-30T11:37:37Z</time>
      </trkpt>
      <trkpt lat="43.77433" lon="5.14361">
        <ele>323.62</ele>
        <time>2013-09-30T11:37:57Z</time>
      </trkpt>
      <trkpt lat="43.77419" lon="5.14381">
        <ele>324.58</ele>
        <time>2013-09-30T11:38:18Z</time>
      </trkpt>
      <trkpt lat="43.77408" lon="5.1439">
        <ele>326.02</ele>
        <time>2013-09-30T11:38:34Z</time>
      </trkpt>
      <trkpt lat="43.77401" lon="5.14401">
        <ele>326.5</ele>
        <time>2013-09-30T11:38:47Z</time>
      </trkpt>
      <trkpt lat="43.77388" lon="5.14409">
        <ele>328.43</ele>
        <time>2013-09-30T11:39:01Z</time>
      </trkpt>
      <trkpt lat="43.77378" lon="5.14415">
        <ele>328.91</ele>
        <time>2013-09-30T11:39:13Z</time>
      </trkpt>
      <trkpt lat="43.77373" lon="5.14416">
        <ele>329.39</ele>
        <time>2013-09-30T11:39:18Z</time>
      </trkpt>
      <trkpt lat="43.77371" lon="5.14418">
        <ele>329.39</ele>
        <time>2013-09-30T11:39:20Z</time>
      </trkpt>
      <trkpt lat="43.77366" lon="5.14419">
        <ele>329.87</ele>
        <time>2013-09-30T11:39:25Z</time>
      </trkpt>
      <trkpt lat="43.77363" lon="5.14421">
        <ele>329.87</ele>
        <time>2013-09-30T11:39:29Z</time>
      </trkpt>
      <trkpt lat="43.77359" lon="5.14422">
        <ele>330.35</ele>
        <time>2013-09-30T11:39:32Z</time>
      </trkpt>
      <trkpt lat="43.77352" lon="5.14426">
        <ele>331.31</ele>
        <time>2013-09-30T11:39:41Z</time>
      </trkpt>
      <trkpt lat="43.77338" lon="5.14429">
        <ele>332.75</ele>
        <time>2013-09-30T11:39:56Z</time>
      </trkpt>
      <trkpt lat="43.77326" lon="5.14432">
        <ele>333.71</ele>
        <time>2013-09-30T11:40:09Z</time>
      </trkpt>
      <trkpt lat="43.77317" lon="5.14437">
        <ele>334.2</ele>
        <time>2013-09-30T11:40:21Z</time>
      </trkpt>
      <trkpt lat="43.77314" lon="5.14438">
        <ele>334.68</ele>
        <time>2013-09-30T11:40:24Z</time>
      </trkpt>
      <trkpt lat="43.77302" lon="5.14437">
        <ele>335.64</ele>
        <time>2013-09-30T11:40:38Z</time>
      </trkpt>
      <trkpt lat="43.77299" lon="5.14439">
        <ele>336.12</ele>
        <time>2013-09-30T11:40:42Z</time>
      </trkpt>
      <trkpt lat="43.77291" lon="5.14441">
        <ele>336.6</ele>
        <time>2013-09-30T11:40:50Z</time>
      </trkpt>
      <trkpt lat="43.77289" lon="5.14443">
        <ele>336.6</ele>
        <time>2013-09-30T11:40:52Z</time>
      </trkpt>
      <trkpt lat="43.77276" lon="5.14445">
        <ele>337.08</ele>
        <time>2013-09-30T11:41:05Z</time>
      </trkpt>
      <trkpt lat="43.77265" lon="5.14446">
        <ele>338.04</ele>
        <time>2013-09-30T11:41:17Z</time>
      </trkpt>
      <trkpt lat="43.77254" lon="5.14449">
        <ele>338.52</ele>
        <time>2013-09-30T11:41:29Z</time>
      </trkpt>
      <trkpt lat="43.77241" lon="5.14459">
        <ele>338.04</ele>
        <time>2013-09-30T11:41:45Z</time>
      </trkpt>
      <trkpt lat="43.77232" lon="5.14465">
        <ele>338.04</ele>
        <time>2013-09-30T11:41:59Z</time>
      </trkpt>
      <trkpt lat="43.77232" lon="5.14465">
        <ele>338.52</ele>
        <time>2013-09-30T11:42:24Z</time>
      </trkpt>
      <trkpt lat="43.77232" lon="5.14466">
        <ele>338.04</ele>
        <time>2013-09-30T11:42:49Z</time>
      </trkpt>
      <trkpt lat="43.77229" lon="5.14466">
        <ele>337.56</ele>
        <time>2013-09-30T11:42:53Z</time>
      </trkpt>
      <trkpt lat="43.77213" lon="5.14464">
        <ele>337.56</ele>
        <time>2013-09-30T11:43:08Z</time>
      </trkpt>
      <trkpt lat="43.77211" lon="5.14464">
        <ele>337.56</ele>
        <time>2013-09-30T11:43:10Z</time>
      </trkpt>
      <trkpt lat="43.77197" lon="5.14469">
        <ele>336.6</ele>
        <time>2013-09-30T11:43:25Z</time>
      </trkpt>
      <trkpt lat="43.7719" lon="5.14468">
        <ele>336.12</ele>
        <time>2013-09-30T11:43:37Z</time>
      </trkpt>
      <trkpt lat="43.77186" lon="5.14467">
        <ele>336.12</ele>
        <time>2013-09-30T11:43:55Z</time>
      </trkpt>
      <trkpt lat="43.77177" lon="5.14469">
        <ele>335.16</ele>
        <time>2013-09-30T11:44:07Z</time>
      </trkpt>
      <trkpt lat="43.77175" lon="5.1447">
        <ele>334.68</ele>
        <time>2013-09-30T11:44:09Z</time>
      </trkpt>
      <trkpt lat="43.77165" lon="5.14471">
        <ele>333.23</ele>
        <time>2013-09-30T11:44:23Z</time>
      </trkpt>
      <trkpt lat="43.77158" lon="5.14479">
        <ele>331.31</ele>
        <time>2013-09-30T11:44:36Z</time>
      </trkpt>
      <trkpt lat="43.77151" lon="5.14484">
        <ele>329.39</ele>
        <time>2013-09-30T11:44:49Z</time>
      </trkpt>
      <trkpt lat="43.77148" lon="5.14486">
        <ele>328.91</ele>
        <time>2013-09-30T11:44:54Z</time>
      </trkpt>
      <trkpt lat="43.77141" lon="5.14488">
        <ele>326.5</ele>
        <time>2013-09-30T11:45:07Z</time>
      </trkpt>
      <trkpt lat="43.7713" lon="5.14492">
        <ele>324.1</ele>
        <time>2013-09-30T11:45:23Z</time>
      </trkpt>
      <trkpt lat="43.77114" lon="5.14489">
        <ele>322.18</ele>
        <time>2013-09-30T11:45:40Z</time>
      </trkpt>
      <trkpt lat="43.77106" lon="5.1448">
        <ele>320.26</ele>
        <time>2013-09-30T11:45:57Z</time>
      </trkpt>
      <trkpt lat="43.77096" lon="5.14477">
        <ele>317.85</ele>
        <time>2013-09-30T11:46:11Z</time>
      </trkpt>
      <trkpt lat="43.77084" lon="5.14473">
        <ele>315.93</ele>
        <time>2013-09-30T11:46:27Z</time>
      </trkpt>
      <trkpt lat="43.77071" lon="5.14473">
        <ele>314.01</ele>
        <time>2013-09-30T11:46:42Z</time>
      </trkpt>
      <trkpt lat="43.77063" lon="5.14471">
        <ele>312.09</ele>
        <time>2013-09-30T11:46:57Z</time>
      </trkpt>
      <trkpt lat="43.77057" lon="5.14468">
        <ele>310.64</ele>
        <time>2013-09-30T11:47:08Z</time>
      </trkpt>
      <trkpt lat="43.77047" lon="5.14469">
        <ele>307.28</ele>
        <time>2013-09-30T11:47:28Z</time>
      </trkpt>
      <trkpt lat="43.7704" lon="5.14474">
        <ele>305.84</ele>
        <time>2013-09-30T11:47:46Z</time>
      </trkpt>
      <trkpt lat="43.77032" lon="5.14478">
        <ele>303.91</ele>
        <time>2013-09-30T11:47:58Z</time>
      </trkpt>
      <trkpt lat="43.77026" lon="5.14479">
        <ele>302.47</ele>
        <time>2013-09-30T11:48:12Z</time>
      </trkpt>
      <trkpt lat="43.77024" lon="5.14478">
        <ele>301.99</ele>
        <time>2013-09-30T11:48:19Z</time>
      </trkpt>
      <trkpt lat="43.77018" lon="5.14481">
        <ele>301.03</ele>
        <time>2013-09-30T11:48:34Z</time>
      </trkpt>
      <trkpt lat="43.77016" lon="5.14472">
        <ele>300.55</ele>
        <time>2013-09-30T11:48:48Z</time>
      </trkpt>
      <trkpt lat="43.77016" lon="5.14465">
        <ele>298.63</ele>
        <time>2013-09-30T11:48:59Z</time>
      </trkpt>
      <trkpt lat="43.77013" lon="5.14466">
        <ele>297.18</ele>
        <time>2013-09-30T11:49:12Z</time>
      </trkpt>
      <trkpt lat="43.77009" lon="5.14468">
        <ele>295.74</ele>
        <time>2013-09-30T11:49:25Z</time>
      </trkpt>
      <trkpt lat="43.77008" lon="5.14472">
        <ele>294.78</ele>
        <time>2013-09-30T11:49:38Z</time>
      </trkpt>
      <trkpt lat="43.77007" lon="5.1447">
        <ele>294.3</ele>
        <time>2013-09-30T11:49:59Z</time>
      </trkpt>
      <trkpt lat="43.77001" lon="5.14467">
        <ele>291.9</ele>
        <time>2013-09-30T11:50:18Z</time>
      </trkpt>
      <trkpt lat="43.76998" lon="5.14473">
        <ele>290.46</ele>
        <time>2013-09-30T11:50:30Z</time>
      </trkpt>
      <trkpt lat="43.76995" lon="5.14469">
        <ele>289.01</ele>
        <time>2013-09-30T11:50:48Z</time>
      </trkpt>
      <trkpt lat="43.76994" lon="5.14483">
        <ele>286.61</ele>
        <time>2013-09-30T11:51:08Z</time>
      </trkpt>
      <trkpt lat="43.76987" lon="5.14485">
        <ele>285.17</ele>
        <time>2013-09-30T11:51:23Z</time>
      </trkpt>
      <trkpt lat="43.76985" lon="5.14484">
        <ele>285.17</ele>
        <time>2013-09-30T11:51:40Z</time>
      </trkpt>
      <trkpt lat="43.76986" lon="5.14482">
        <ele>285.17</ele>
        <time>2013-09-30T11:52:06Z</time>
      </trkpt>
      <trkpt lat="43.76986" lon="5.14473">
        <ele>284.21</ele>
        <time>2013-09-30T11:52:21Z</time>
      </trkpt>
      <trkpt lat="43.76984" lon="5.14474">
        <ele>283.73</ele>
        <time>2013-09-30T11:52:34Z</time>
      </trkpt>
      <trkpt lat="43.76983" lon="5.14472">
        <ele>282.28</ele>
        <time>2013-09-30T11:52:46Z</time>
      </trkpt>
      <trkpt lat="43.7698" lon="5.14468">
        <ele>281.32</ele>
        <time>2013-09-30T11:52:58Z</time>
      </trkpt>
      <trkpt lat="43.7698" lon="5.1446">
        <ele>279.88</ele>
        <time>2013-09-30T11:53:15Z</time>
      </trkpt>
      <trkpt lat="43.76977" lon="5.14451">
        <ele>278.92</ele>
        <time>2013-09-30T11:53:27Z</time>
      </trkpt>
      <trkpt lat="43.76975" lon="5.14444">
        <ele>277.48</ele>
        <time>2013-09-30T11:53:40Z</time>
      </trkpt>
      <trkpt lat="43.76972" lon="5.14442">
        <ele>277</ele>
        <time>2013-09-30T11:53:50Z</time>
      </trkpt>
      <trkpt lat="43.76966" lon="5.14438">
        <ele>275.07</ele>
        <time>2013-09-30T11:54:07Z</time>
      </trkpt>
      <trkpt lat="43.76962" lon="5.14433">
        <ele>274.11</ele>
        <time>2013-09-30T11:54:19Z</time>
      </trkpt>
      <trkpt lat="43.76953" lon="5.14434">
        <ele>271.71</ele>
        <time>2013-09-30T11:54:35Z</time>
      </trkpt>
      <trkpt lat="43.76946" lon="5.14433">
        <ele>270.27</ele>
        <time>2013-09-30T11:54:53Z</time>
      </trkpt>
      <trkpt lat="43.76949" lon="5.14435">
        <ele>269.31</ele>
        <time>2013-09-30T11:55:08Z</time>
      </trkpt>
      <trkpt lat="43.76947" lon="5.14442">
        <ele>267.38</ele>
        <time>2013-09-30T11:55:23Z</time>
      </trkpt>
      <trkpt lat="43.76941" lon="5.14453">
        <ele>264.5</ele>
        <time>2013-09-30T11:55:42Z</time>
      </trkpt>
      <trkpt lat="43.76943" lon="5.14461">
        <ele>264.02</ele>
        <time>2013-09-30T11:56:04Z</time>
      </trkpt>
      <trkpt lat="43.76944" lon="5.1446">
        <ele>264.02</ele>
        <time>2013-09-30T11:56:23Z</time>
      </trkpt>
      <trkpt lat="43.76939" lon="5.14459">
        <ele>264.02</ele>
        <time>2013-09-30T11:56:50Z</time>
      </trkpt>
      <trkpt lat="43.76941" lon="5.14448">
        <ele>264.02</ele>
        <time>2013-09-30T11:57:17Z</time>
      </trkpt>
      <trkpt lat="43.76943" lon="5.1445">
        <ele>264.5</ele>
        <time>2013-09-30T11:57:48Z</time>
      </trkpt>
      <trkpt lat="43.76932" lon="5.14457">
        <ele>264.5</ele>
        <time>2013-09-30T11:58:14Z</time>
      </trkpt>
      <trkpt lat="43.76935" lon="5.14454">
        <ele>264.5</ele>
        <time>2013-09-30T11:58:36Z</time>
      </trkpt>
      <trkpt lat="43.76936" lon="5.14471">
        <ele>262.58</ele>
        <time>2013-09-30T11:58:59Z</time>
      </trkpt>
      <trkpt lat="43.76933" lon="5.14481">
        <ele>260.17</ele>
        <time>2013-09-30T11:59:17Z</time>
      </trkpt>
      <trkpt lat="43.76918" lon="5.14486">
        <ele>257.29</ele>
        <time>2013-09-30T11:59:35Z</time>
      </trkpt>
      <trkpt lat="43.76913" lon="5.14491">
        <ele>253.93</ele>
        <time>2013-09-30T11:59:47Z</time>
      </trkpt>
      <trkpt lat="43.76911" lon="5.14492">
        <ele>253.44</ele>
        <time>2013-09-30T11:59:49Z</time>
      </trkpt>
      <trkpt lat="43.76907" lon="5.14497">
        <ele>252</ele>
        <time>2013-09-30T11:59:55Z</time>
      </trkpt>
      <trkpt lat="43.769" lon="5.14508">
        <ele>251.04</ele>
        <time>2013-09-30T12:00:07Z</time>
      </trkpt>
      <trkpt lat="43.76887" lon="5.1452">
        <ele>249.12</ele>
        <time>2013-09-30T12:00:22Z</time>
      </trkpt>
      <trkpt lat="43.76878" lon="5.14526">
        <ele>248.16</ele>
        <time>2013-09-30T12:00:35Z</time>
      </trkpt>
      <trkpt lat="43.76868" lon="5.14531">
        <ele>246.72</ele>
        <time>2013-09-30T12:00:50Z</time>
      </trkpt>
      <trkpt lat="43.76853" lon="5.14539">
        <ele>245.27</ele>
        <time>2013-09-30T12:01:06Z</time>
      </trkpt>
      <trkpt lat="43.76842" lon="5.14548">
        <ele>242.87</ele>
        <time>2013-09-30T12:01:21Z</time>
      </trkpt>
      <trkpt lat="43.7684" lon="5.14548">
        <ele>242.87</ele>
        <time>2013-09-30T12:01:23Z</time>
      </trkpt>
      <trkpt lat="43.76825" lon="5.14557">
        <ele>241.43</ele>
        <time>2013-09-30T12:01:40Z</time>
      </trkpt>
      <trkpt lat="43.76811" lon="5.1457">
        <ele>239.02</ele>
        <time>2013-09-30T12:01:58Z</time>
      </trkpt>
      <trkpt lat="43.76801" lon="5.14578">
        <ele>236.62</ele>
        <time>2013-09-30T12:02:12Z</time>
      </trkpt>
      <trkpt lat="43.76792" lon="5.14582">
        <ele>233.74</ele>
        <time>2013-09-30T12:02:24Z</time>
      </trkpt>
      <trkpt lat="43.76776" lon="5.14588">
        <ele>231.81</ele>
        <time>2013-09-30T12:02:41Z</time>
      </trkpt>
      <trkpt lat="43.76764" lon="5.14593">
        <ele>230.85</ele>
        <time>2013-09-30T12:02:51Z</time>
      </trkpt>
      <trkpt lat="43.76756" lon="5.14597">
        <ele>230.37</ele>
        <time>2013-09-30T12:03:04Z</time>
      </trkpt>
      <trkpt lat="43.76753" lon="5.14602">
        <ele>230.37</ele>
        <time>2013-09-30T12:03:23Z</time>
      </trkpt>
      <trkpt lat="43.76754" lon="5.14604">
        <ele>229.89</ele>
        <time>2013-09-30T12:03:45Z</time>
      </trkpt>
      <trkpt lat="43.76755" lon="5.14606">
        <ele>230.37</ele>
        <time>2013-09-30T12:04:09Z</time>
      </trkpt>
      <trkpt lat="43.76755" lon="5.1461">
        <ele>229.89</ele>
        <time>2013-09-30T12:04:28Z</time>
      </trkpt>
      <trkpt lat="43.76758" lon="5.14606">
        <ele>229.89</ele>
        <time>2013-09-30T12:04:42Z</time>
      </trkpt>
      <trkpt lat="43.76751" lon="5.14597">
        <ele>230.37</ele>
        <time>2013-09-30T12:04:59Z</time>
      </trkpt>
      <trkpt lat="43.76756" lon="5.14602">
        <ele>230.37</ele>
        <time>2013-09-30T12:05:18Z</time>
      </trkpt>
      <trkpt lat="43.76753" lon="5.14597">
        <ele>230.37</ele>
        <time>2013-09-30T12:05:48Z</time>
      </trkpt>
      <trkpt lat="43.76755" lon="5.14595">
        <ele>230.37</ele>
        <time>2013-09-30T12:06:16Z</time>
      </trkpt>
      <trkpt lat="43.76756" lon="5.14598">
        <ele>230.37</ele>
        <time>2013-09-30T12:06:46Z</time>
      </trkpt>
      <trkpt lat="43.76749" lon="5.14595">
        <ele>229.89</ele>
        <time>2013-09-30T12:07:20Z</time>
      </trkpt>
      <trkpt lat="43.76755" lon="5.14601">
        <ele>229.89</ele>
        <time>2013-09-30T12:07:40Z</time>
      </trkpt>
      <trkpt lat="43.76757" lon="5.146">
        <ele>229.89</ele>
        <time>2013-09-30T12:08:01Z</time>
      </trkpt>
      <trkpt lat="43.76758" lon="5.14599">
        <ele>230.37</ele>
        <time>2013-09-30T12:08:22Z</time>
      </trkpt>
      <trkpt lat="43.76759" lon="5.14605">
        <ele>229.89</ele>
        <time>2013-09-30T12:08:32Z</time>
      </trkpt>
      <trkpt lat="43.76758" lon="5.14611">
        <ele>229.89</ele>
        <time>2013-09-30T12:08:49Z</time>
      </trkpt>
      <trkpt lat="43.76757" lon="5.14609">
        <ele>229.41</ele>
        <time>2013-09-30T12:09:07Z</time>
      </trkpt>
      <trkpt lat="43.76754" lon="5.1461">
        <ele>229.89</ele>
        <time>2013-09-30T12:09:20Z</time>
      </trkpt>
      <trkpt lat="43.76752" lon="5.14614">
        <ele>229.41</ele>
        <time>2013-09-30T12:09:38Z</time>
      </trkpt>
      <trkpt lat="43.76754" lon="5.14621">
        <ele>227.97</ele>
        <time>2013-09-30T12:09:52Z</time>
      </trkpt>
      <trkpt lat="43.7675" lon="5.14625">
        <ele>226.53</ele>
        <time>2013-09-30T12:10:05Z</time>
      </trkpt>
      <trkpt lat="43.76742" lon="5.14629">
        <ele>225.09</ele>
        <time>2013-09-30T12:10:20Z</time>
      </trkpt>
      <trkpt lat="43.76736" lon="5.1463">
        <ele>223.64</ele>
        <time>2013-09-30T12:10:35Z</time>
      </trkpt>
      <trkpt lat="43.7673" lon="5.1464">
        <ele>222.2</ele>
        <time>2013-09-30T12:10:50Z</time>
      </trkpt>
      <trkpt lat="43.76719" lon="5.14662">
        <ele>220.76</ele>
        <time>2013-09-30T12:11:11Z</time>
      </trkpt>
      <trkpt lat="43.76713" lon="5.14679">
        <ele>219.8</ele>
        <time>2013-09-30T12:11:29Z</time>
      </trkpt>
      <trkpt lat="43.76706" lon="5.14696">
        <ele>218.36</ele>
        <time>2013-09-30T12:11:48Z</time>
      </trkpt>
      <trkpt lat="43.76692" lon="5.1471">
        <ele>216.91</ele>
        <time>2013-09-30T12:12:10Z</time>
      </trkpt>
      <trkpt lat="43.76677" lon="5.14718">
        <ele>215.47</ele>
        <time>2013-09-30T12:12:33Z</time>
      </trkpt>
      <trkpt lat="43.76664" lon="5.14727">
        <ele>214.03</ele>
        <time>2013-09-30T12:12:54Z</time>
      </trkpt>
      <trkpt lat="43.7665" lon="5.14721">
        <ele>212.59</ele>
        <time>2013-09-30T12:13:14Z</time>
      </trkpt>
      <trkpt lat="43.7664" lon="5.14707">
        <ele>212.11</ele>
        <time>2013-09-30T12:13:30Z</time>
      </trkpt>
      <trkpt lat="43.76631" lon="5.14693">
        <ele>210.67</ele>
        <time>2013-09-30T12:13:50Z</time>
      </trkpt>
      <trkpt lat="43.76625" lon="5.14681">
        <ele>208.74</ele>
        <time>2013-09-30T12:14:08Z</time>
      </trkpt>
      <trkpt lat="43.76617" lon="5.14674">
        <ele>207.78</ele>
        <time>2013-09-30T12:14:21Z</time>
      </trkpt>
      <trkpt lat="43.76611" lon="5.14677">
        <ele>206.82</ele>
        <time>2013-09-30T12:14:32Z</time>
      </trkpt>
      <trkpt lat="43.76608" lon="5.14671">
        <ele>204.42</ele>
        <time>2013-09-30T12:14:44Z</time>
      </trkpt>
      <trkpt lat="43.76604" lon="5.14669">
        <ele>202.98</ele>
        <time>2013-09-30T12:15:02Z</time>
      </trkpt>
      <trkpt lat="43.76602" lon="5.14663">
        <ele>201.53</ele>
        <time>2013-09-30T12:15:18Z</time>
      </trkpt>
      <trkpt lat="43.76608" lon="5.14652">
        <ele>199.61</ele>
        <time>2013-09-30T12:15:32Z</time>
      </trkpt>
      <trkpt lat="43.76602" lon="5.14647">
        <ele>198.17</ele>
        <time>2013-09-30T12:15:46Z</time>
      </trkpt>
      <trkpt lat="43.76599" lon="5.14643">
        <ele>196.25</ele>
        <time>2013-09-30T12:15:59Z</time>
      </trkpt>
      <trkpt lat="43.766" lon="5.14639">
        <ele>194.8</ele>
        <time>2013-09-30T12:16:09Z</time>
      </trkpt>
      <trkpt lat="43.766" lon="5.1464">
        <ele>193.84</ele>
        <time>2013-09-30T12:16:21Z</time>
      </trkpt>
      <trkpt lat="43.76596" lon="5.1465">
        <ele>192.88</ele>
        <time>2013-09-30T12:16:43Z</time>
      </trkpt>
      <trkpt lat="43.76588" lon="5.14649">
        <ele>191.44</ele>
        <time>2013-09-30T12:17:00Z</time>
      </trkpt>
      <trkpt lat="43.76584" lon="5.14656">
        <ele>190</ele>
        <time>2013-09-30T12:17:14Z</time>
      </trkpt>
      <trkpt lat="43.76579" lon="5.14658">
        <ele>188.56</ele>
        <time>2013-09-30T12:17:26Z</time>
      </trkpt>
      <trkpt lat="43.76573" lon="5.14658">
        <ele>187.11</ele>
        <time>2013-09-30T12:17:40Z</time>
      </trkpt>
      <trkpt lat="43.76567" lon="5.14657">
        <ele>185.67</ele>
        <time>2013-09-30T12:17:51Z</time>
      </trkpt>
      <trkpt lat="43.7656" lon="5.14661">
        <ele>184.71</ele>
        <time>2013-09-30T12:18:06Z</time>
      </trkpt>
      <trkpt lat="43.76552" lon="5.14659">
        <ele>182.79</ele>
        <time>2013-09-30T12:18:19Z</time>
      </trkpt>
      <trkpt lat="43.7655" lon="5.14651">
        <ele>182.79</ele>
        <time>2013-09-30T12:18:34Z</time>
      </trkpt>
      <trkpt lat="43.76553" lon="5.14641">
        <ele>182.79</ele>
        <time>2013-09-30T12:18:44Z</time>
      </trkpt>
      <trkpt lat="43.76553" lon="5.14629">
        <ele>180.87</ele>
        <time>2013-09-30T12:18:56Z</time>
      </trkpt>
      <trkpt lat="43.76553" lon="5.14612">
        <ele>179.9</ele>
        <time>2013-09-30T12:19:11Z</time>
      </trkpt>
      <trkpt lat="43.76546" lon="5.14609">
        <ele>178.94</ele>
        <time>2013-09-30T12:19:18Z</time>
      </trkpt>
      <trkpt lat="43.76539" lon="5.14597">
        <ele>177.02</ele>
        <time>2013-09-30T12:19:31Z</time>
      </trkpt>
      <trkpt lat="43.76534" lon="5.14584">
        <ele>177.5</ele>
        <time>2013-09-30T12:19:44Z</time>
      </trkpt>
      <trkpt lat="43.76524" lon="5.14576">
        <ele>176.54</ele>
        <time>2013-09-30T12:19:58Z</time>
      </trkpt>
      <trkpt lat="43.76514" lon="5.14569">
        <ele>176.54</ele>
        <time>2013-09-30T12:20:08Z</time>
      </trkpt>
      <trkpt lat="43.76513" lon="5.1457">
        <ele>176.06</ele>
        <time>2013-09-30T12:20:21Z</time>
      </trkpt>
      <trkpt lat="43.76513" lon="5.14572">
        <ele>177.02</ele>
        <time>2013-09-30T12:20:43Z</time>
      </trkpt>
      <trkpt lat="43.76509" lon="5.14575">
        <ele>177.5</ele>
        <time>2013-09-30T12:20:48Z</time>
      </trkpt>
      <trkpt lat="43.76507" lon="5.14577">
        <ele>177.5</ele>
        <time>2013-09-30T12:20:50Z</time>
      </trkpt>
      <trkpt lat="43.76502" lon="5.14581">
        <ele>177.98</ele>
        <time>2013-09-30T12:20:56Z</time>
      </trkpt>
      <trkpt lat="43.76489" lon="5.14601">
        <ele>178.46</ele>
        <time>2013-09-30T12:21:11Z</time>
      </trkpt>
      <trkpt lat="43.76487" lon="5.14604">
        <ele>178.94</ele>
        <time>2013-09-30T12:21:14Z</time>
      </trkpt>
      <trkpt lat="43.76483" lon="5.14608">
        <ele>178.94</ele>
        <time>2013-09-30T12:21:19Z</time>
      </trkpt>
      <trkpt lat="43.76472" lon="5.1462">
        <ele>179.42</ele>
        <time>2013-09-30T12:21:32Z</time>
      </trkpt>
      <trkpt lat="43.76469" lon="5.14623">
        <ele>179.9</ele>
        <time>2013-09-30T12:21:37Z</time>
      </trkpt>
      <trkpt lat="43.76467" lon="5.14624">
        <ele>179.9</ele>
        <time>2013-09-30T12:21:39Z</time>
      </trkpt>
      <trkpt lat="43.76463" lon="5.14628">
        <ele>179.9</ele>
        <time>2013-09-30T12:21:44Z</time>
      </trkpt>
      <trkpt lat="43.76453" lon="5.14636">
        <ele>178.94</ele>
        <time>2013-09-30T12:21:57Z</time>
      </trkpt>
      <trkpt lat="43.76444" lon="5.14643">
        <ele>179.42</ele>
        <time>2013-09-30T12:22:09Z</time>
      </trkpt>
      <trkpt lat="43.76433" lon="5.14653">
        <ele>178.94</ele>
        <time>2013-09-30T12:22:22Z</time>
      </trkpt>
      <trkpt lat="43.76427" lon="5.14657">
        <ele>179.42</ele>
        <time>2013-09-30T12:22:28Z</time>
      </trkpt>
      <trkpt lat="43.76415" lon="5.14664">
        <ele>179.9</ele>
        <time>2013-09-30T12:22:40Z</time>
      </trkpt>
      <trkpt lat="43.76401" lon="5.14671">
        <ele>180.87</ele>
        <time>2013-09-30T12:22:54Z</time>
      </trkpt>
      <trkpt lat="43.76399" lon="5.14672">
        <ele>180.87</ele>
        <time>2013-09-30T12:22:56Z</time>
      </trkpt>
      <trkpt lat="43.76394" lon="5.14673">
        <ele>180.87</ele>
        <time>2013-09-30T12:23:01Z</time>
      </trkpt>
      <trkpt lat="43.76391" lon="5.14675">
        <ele>180.87</ele>
        <time>2013-09-30T12:23:04Z</time>
      </trkpt>
      <trkpt lat="43.76378" lon="5.14678">
        <ele>180.87</ele>
        <time>2013-09-30T12:23:17Z</time>
      </trkpt>
      <trkpt lat="43.76377" lon="5.14676">
        <ele>180.38</ele>
        <time>2013-09-30T12:23:32Z</time>
      </trkpt>
      <trkpt lat="43.76369" lon="5.14679">
        <ele>180.38</ele>
        <time>2013-09-30T12:23:39Z</time>
      </trkpt>
      <trkpt lat="43.7636" lon="5.14676">
        <ele>180.38</ele>
        <time>2013-09-30T12:23:50Z</time>
      </trkpt>
      <trkpt lat="43.76347" lon="5.14681">
        <ele>179.9</ele>
        <time>2013-09-30T12:24:02Z</time>
      </trkpt>
      <trkpt lat="43.76337" lon="5.1468">
        <ele>178.94</ele>
        <time>2013-09-30T12:24:11Z</time>
      </trkpt>
      <trkpt lat="43.76325" lon="5.14676">
        <ele>178.46</ele>
        <time>2013-09-30T12:24:25Z</time>
      </trkpt>
      <trkpt lat="43.76309" lon="5.14666">
        <ele>177.5</ele>
        <time>2013-09-30T12:24:41Z</time>
      </trkpt>
      <trkpt lat="43.76287" lon="5.14665">
        <ele>175.1</ele>
        <time>2013-09-30T12:24:59Z</time>
      </trkpt>
      <trkpt lat="43.76275" lon="5.14658">
        <ele>174.62</ele>
        <time>2013-09-30T12:25:12Z</time>
      </trkpt>
      <trkpt lat="43.76268" lon="5.14654">
        <ele>174.62</ele>
        <time>2013-09-30T12:25:20Z</time>
      </trkpt>
      <trkpt lat="43.76267" lon="5.14653">
        <ele>174.62</ele>
        <time>2013-09-30T12:25:22Z</time>
      </trkpt>
      <trkpt lat="43.76251" lon="5.14646">
        <ele>174.14</ele>
        <time>2013-09-30T12:25:37Z</time>
      </trkpt>
      <trkpt lat="43.7625" lon="5.14645">
        <ele>174.14</ele>
        <time>2013-09-30T12:25:39Z</time>
      </trkpt>
      <trkpt lat="43.76248" lon="5.14645">
        <ele>174.14</ele>
        <time>2013-09-30T12:25:41Z</time>
      </trkpt>
      <trkpt lat="43.76242" lon="5.14646">
        <ele>173.17</ele>
        <time>2013-09-30T12:25:46Z</time>
      </trkpt>
      <trkpt lat="43.76233" lon="5.1466">
        <ele>172.21</ele>
        <time>2013-09-30T12:26:00Z</time>
      </trkpt>
      <trkpt lat="43.76223" lon="5.14691">
        <ele>170.77</ele>
        <time>2013-09-30T12:26:15Z</time>
      </trkpt>
      <trkpt lat="43.76215" lon="5.14712">
        <ele>170.29</ele>
        <time>2013-09-30T12:26:28Z</time>
      </trkpt>
      <trkpt lat="43.76204" lon="5.14728">
        <ele>169.33</ele>
        <time>2013-09-30T12:26:44Z</time>
      </trkpt>
      <trkpt lat="43.76197" lon="5.14743">
        <ele>168.37</ele>
        <time>2013-09-30T12:26:56Z</time>
      </trkpt>
      <trkpt lat="43.76189" lon="5.1476">
        <ele>167.89</ele>
        <time>2013-09-30T12:27:10Z</time>
      </trkpt>
      <trkpt lat="43.76186" lon="5.14765">
        <ele>167.89</ele>
        <time>2013-09-30T12:27:14Z</time>
      </trkpt>
      <trkpt lat="43.76183" lon="5.14773">
        <ele>167.41</ele>
        <time>2013-09-30T12:27:19Z</time>
      </trkpt>
      <trkpt lat="43.76182" lon="5.14775">
        <ele>167.41</ele>
        <time>2013-09-30T12:27:21Z</time>
      </trkpt>
      <trkpt lat="43.7617" lon="5.14794">
        <ele>167.41</ele>
        <time>2013-09-30T12:27:38Z</time>
      </trkpt>
      <trkpt lat="43.76165" lon="5.14805">
        <ele>166.93</ele>
        <time>2013-09-30T12:27:47Z</time>
      </trkpt>
      <trkpt lat="43.7616" lon="5.14826">
        <ele>165.96</ele>
        <time>2013-09-30T12:28:03Z</time>
      </trkpt>
      <trkpt lat="43.76158" lon="5.14829">
        <ele>165.96</ele>
        <time>2013-09-30T12:28:05Z</time>
      </trkpt>
      <trkpt lat="43.76157" lon="5.14835">
        <ele>165.96</ele>
        <time>2013-09-30T12:28:09Z</time>
      </trkpt>
      <trkpt lat="43.76153" lon="5.1485">
        <ele>165.48</ele>
        <time>2013-09-30T12:28:19Z</time>
      </trkpt>
      <trkpt lat="43.76156" lon="5.14869">
        <ele>165</ele>
        <time>2013-09-30T12:28:32Z</time>
      </trkpt>
      <trkpt lat="43.76172" lon="5.1488">
        <ele>164.04</ele>
        <time>2013-09-30T12:28:47Z</time>
      </trkpt>
      <trkpt lat="43.76176" lon="5.14883">
        <ele>164.04</ele>
        <time>2013-09-30T12:28:51Z</time>
      </trkpt>
      <trkpt lat="43.7618" lon="5.14883">
        <ele>164.04</ele>
        <time>2013-09-30T12:28:55Z</time>
      </trkpt>
      <trkpt lat="43.76188" lon="5.14894">
        <ele>164.04</ele>
        <time>2013-09-30T12:29:07Z</time>
      </trkpt>
      <trkpt lat="43.76193" lon="5.14911">
        <ele>163.56</ele>
        <time>2013-09-30T12:29:18Z</time>
      </trkpt>
      <trkpt lat="43.76193" lon="5.14927">
        <ele>164.04</ele>
        <time>2013-09-30T12:29:29Z</time>
      </trkpt>
      <trkpt lat="43.7619" lon="5.14952">
        <ele>163.56</ele>
        <time>2013-09-30T12:29:45Z</time>
      </trkpt>
      <trkpt lat="43.76186" lon="5.14961">
        <ele>163.56</ele>
        <time>2013-09-30T12:29:51Z</time>
      </trkpt>
      <trkpt lat="43.76171" lon="5.14976">
        <ele>163.08</ele>
        <time>2013-09-30T12:30:08Z</time>
      </trkpt>
      <trkpt lat="43.7616" lon="5.14997">
        <ele>162.6</ele>
        <time>2013-09-30T12:30:23Z</time>
      </trkpt>
      <trkpt lat="43.76152" lon="5.15011">
        <ele>161.64</ele>
        <time>2013-09-30T12:30:36Z</time>
      </trkpt>
      <trkpt lat="43.76138" lon="5.15025">
        <ele>160.2</ele>
        <time>2013-09-30T12:30:51Z</time>
      </trkpt>
      <trkpt lat="43.76126" lon="5.15044">
        <ele>158.75</ele>
        <time>2013-09-30T12:31:05Z</time>
      </trkpt>
      <trkpt lat="43.76125" lon="5.15049">
        <ele>158.27</ele>
        <time>2013-09-30T12:31:19Z</time>
      </trkpt>
      <trkpt lat="43.76115" lon="5.15063">
        <ele>156.83</ele>
        <time>2013-09-30T12:31:32Z</time>
      </trkpt>
      <trkpt lat="43.76106" lon="5.15084">
        <ele>155.39</ele>
        <time>2013-09-30T12:31:46Z</time>
      </trkpt>
      <trkpt lat="43.76103" lon="5.15088">
        <ele>154.43</ele>
        <time>2013-09-30T12:32:02Z</time>
      </trkpt>
      <trkpt lat="43.76096" lon="5.15103">
        <ele>152.99</ele>
        <time>2013-09-30T12:32:16Z</time>
      </trkpt>
      <trkpt lat="43.7609" lon="5.15119">
        <ele>151.54</ele>
        <time>2013-09-30T12:32:28Z</time>
      </trkpt>
      <trkpt lat="43.76081" lon="5.15142">
        <ele>150.1</ele>
        <time>2013-09-30T12:32:42Z</time>
      </trkpt>
      <trkpt lat="43.76076" lon="5.15152">
        <ele>149.62</ele>
        <time>2013-09-30T12:32:53Z</time>
      </trkpt>
      <trkpt lat="43.76076" lon="5.15163">
        <ele>149.62</ele>
        <time>2013-09-30T12:33:01Z</time>
      </trkpt>
      <trkpt lat="43.76076" lon="5.15169">
        <ele>148.66</ele>
        <time>2013-09-30T12:33:05Z</time>
      </trkpt>
      <trkpt lat="43.76078" lon="5.15194">
        <ele>147.22</ele>
        <time>2013-09-30T12:33:20Z</time>
      </trkpt>
      <trkpt lat="43.7608" lon="5.15214">
        <ele>145.78</ele>
        <time>2013-09-30T12:33:34Z</time>
      </trkpt>
      <trkpt lat="43.76076" lon="5.15233">
        <ele>144.34</ele>
        <time>2013-09-30T12:33:48Z</time>
      </trkpt>
      <trkpt lat="43.76069" lon="5.15261">
        <ele>143.37</ele>
        <time>2013-09-30T12:34:04Z</time>
      </trkpt>
      <trkpt lat="43.76065" lon="5.1528">
        <ele>142.41</ele>
        <time>2013-09-30T12:34:17Z</time>
      </trkpt>
      <trkpt lat="43.76059" lon="5.15297">
        <ele>141.93</ele>
        <time>2013-09-30T12:34:31Z</time>
      </trkpt>
      <trkpt lat="43.76055" lon="5.15311">
        <ele>141.45</ele>
        <time>2013-09-30T12:34:43Z</time>
      </trkpt>
      <trkpt lat="43.76053" lon="5.15318">
        <ele>141.45</ele>
        <time>2013-09-30T12:34:48Z</time>
      </trkpt>
      <trkpt lat="43.76047" lon="5.15335">
        <ele>140.97</ele>
        <time>2013-09-30T12:35:01Z</time>
      </trkpt>
      <trkpt lat="43.76038" lon="5.1535">
        <ele>140.97</ele>
        <time>2013-09-30T12:35:13Z</time>
      </trkpt>
      <trkpt lat="43.76036" lon="5.15356">
        <ele>140.97</ele>
        <time>2013-09-30T12:35:17Z</time>
      </trkpt>
      <trkpt lat="43.76026" lon="5.15377">
        <ele>140.49</ele>
        <time>2013-09-30T12:35:35Z</time>
      </trkpt>
      <trkpt lat="43.76023" lon="5.15383">
        <ele>140.49</ele>
        <time>2013-09-30T12:35:40Z</time>
      </trkpt>
      <trkpt lat="43.76021" lon="5.15384">
        <ele>140.49</ele>
        <time>2013-09-30T12:35:53Z</time>
      </trkpt>
      <trkpt lat="43.76019" lon="5.15387">
        <ele>140.49</ele>
        <time>2013-09-30T12:35:59Z</time>
      </trkpt>
      <trkpt lat="43.76007" lon="5.15403">
        <ele>140.01</ele>
        <time>2013-09-30T12:36:13Z</time>
      </trkpt>
      <trkpt lat="43.76003" lon="5.15413">
        <ele>139.53</ele>
        <time>2013-09-30T12:36:20Z</time>
      </trkpt>
      <trkpt lat="43.75995" lon="5.1543">
        <ele>139.05</ele>
        <time>2013-09-30T12:36:35Z</time>
      </trkpt>
      <trkpt lat="43.75991" lon="5.1543">
        <ele>139.53</ele>
        <time>2013-09-30T12:36:52Z</time>
      </trkpt>
      <trkpt lat="43.75996" lon="5.15429">
        <ele>139.05</ele>
        <time>2013-09-30T12:37:15Z</time>
      </trkpt>
      <trkpt lat="43.75998" lon="5.15428">
        <ele>139.53</ele>
        <time>2013-09-30T12:37:43Z</time>
      </trkpt>
      <trkpt lat="43.76" lon="5.15431">
        <ele>139.05</ele>
        <time>2013-09-30T12:38:11Z</time>
      </trkpt>
      <trkpt lat="43.75984" lon="5.15445">
        <ele>138.57</ele>
        <time>2013-09-30T12:38:27Z</time>
      </trkpt>
      <trkpt lat="43.75972" lon="5.15464">
        <ele>138.09</ele>
        <time>2013-09-30T12:38:42Z</time>
      </trkpt>
      <trkpt lat="43.75968" lon="5.15472">
        <ele>137.61</ele>
        <time>2013-09-30T12:38:48Z</time>
      </trkpt>
      <trkpt lat="43.75964" lon="5.15487">
        <ele>136.64</ele>
        <time>2013-09-30T12:39:01Z</time>
      </trkpt>
      <trkpt lat="43.75961" lon="5.15499">
        <ele>136.16</ele>
        <time>2013-09-30T12:39:17Z</time>
      </trkpt>
      <trkpt lat="43.75956" lon="5.15515">
        <ele>135.68</ele>
        <time>2013-09-30T12:39:29Z</time>
      </trkpt>
      <trkpt lat="43.75952" lon="5.15535">
        <ele>134.24</ele>
        <time>2013-09-30T12:39:43Z</time>
      </trkpt>
      <trkpt lat="43.75947" lon="5.15558">
        <ele>132.8</ele>
        <time>2013-09-30T12:39:59Z</time>
      </trkpt>
      <trkpt lat="43.75945" lon="5.15569">
        <ele>131.84</ele>
        <time>2013-09-30T12:40:07Z</time>
      </trkpt>
      <trkpt lat="43.75944" lon="5.15577">
        <ele>131.36</ele>
        <time>2013-09-30T12:40:13Z</time>
      </trkpt>
      <trkpt lat="43.7594" lon="5.15603">
        <ele>129.43</ele>
        <time>2013-09-30T12:40:30Z</time>
      </trkpt>
      <trkpt lat="43.75939" lon="5.15607">
        <ele>128.95</ele>
        <time>2013-09-30T12:40:33Z</time>
      </trkpt>
      <trkpt lat="43.75935" lon="5.15626">
        <ele>127.99</ele>
        <time>2013-09-30T12:40:51Z</time>
      </trkpt>
      <trkpt lat="43.75933" lon="5.15638">
        <ele>127.03</ele>
        <time>2013-09-30T12:41:06Z</time>
      </trkpt>
      <trkpt lat="43.75934" lon="5.15647">
        <ele>126.07</ele>
        <time>2013-09-30T12:41:19Z</time>
      </trkpt>
      <trkpt lat="43.75943" lon="5.1565">
        <ele>125.59</ele>
        <time>2013-09-30T12:41:27Z</time>
      </trkpt>
      <trkpt lat="43.75958" lon="5.15654">
        <ele>125.59</ele>
        <time>2013-09-30T12:41:40Z</time>
      </trkpt>
      <trkpt lat="43.75965" lon="5.15667">
        <ele>126.07</ele>
        <time>2013-09-30T12:41:52Z</time>
      </trkpt>
      <trkpt lat="43.75968" lon="5.15682">
        <ele>126.07</ele>
        <time>2013-09-30T12:42:06Z</time>
      </trkpt>
      <trkpt lat="43.75971" lon="5.15689">
        <ele>126.55</ele>
        <time>2013-09-30T12:42:19Z</time>
      </trkpt>
      <trkpt lat="43.75969" lon="5.15687">
        <ele>126.55</ele>
        <time>2013-09-30T12:42:35Z</time>
      </trkpt>
      <trkpt lat="43.7597" lon="5.15682">
        <ele>126.55</ele>
        <time>2013-09-30T12:42:53Z</time>
      </trkpt>
      <trkpt lat="43.75971" lon="5.15681">
        <ele>126.07</ele>
        <time>2013-09-30T12:43:12Z</time>
      </trkpt>
      <trkpt lat="43.75977" lon="5.15687">
        <ele>126.55</ele>
        <time>2013-09-30T12:43:35Z</time>
      </trkpt>
      <trkpt lat="43.7597" lon="5.15695">
        <ele>125.59</ele>
        <time>2013-09-30T12:43:55Z</time>
      </trkpt>
      <trkpt lat="43.75969" lon="5.15701">
        <ele>125.59</ele>
        <time>2013-09-30T12:44:27Z</time>
      </trkpt>
      <trkpt lat="43.75964" lon="5.15696">
        <ele>125.59</ele>
        <time>2013-09-30T12:44:56Z</time>
      </trkpt>
      <trkpt lat="43.75969" lon="5.15688">
        <ele>125.59</ele>
        <time>2013-09-30T12:45:20Z</time>
      </trkpt>
      <trkpt lat="43.7598" lon="5.15679">
        <ele>124.63</ele>
        <time>2013-09-30T12:45:45Z</time>
      </trkpt>
      <trkpt lat="43.75977" lon="5.15685">
        <ele>124.63</ele>
        <time>2013-09-30T12:46:06Z</time>
      </trkpt>
      <trkpt lat="43.75977" lon="5.15684">
        <ele>124.63</ele>
        <time>2013-09-30T12:46:39Z</time>
      </trkpt>
      <trkpt lat="43.7597" lon="5.15682">
        <ele>124.63</ele>
        <time>2013-09-30T12:47:09Z</time>
      </trkpt>
      <trkpt lat="43.75971" lon="5.15685">
        <ele>124.63</ele>
        <time>2013-09-30T12:47:40Z</time>
      </trkpt>
      <trkpt lat="43.75971" lon="5.15686">
        <ele>125.11</ele>
        <time>2013-09-30T12:48:06Z</time>
      </trkpt>
      <trkpt lat="43.7597" lon="5.15681">
        <ele>125.11</ele>
        <time>2013-09-30T12:48:40Z</time>
      </trkpt>
      <trkpt lat="43.75971" lon="5.1568">
        <ele>125.11</ele>
        <time>2013-09-30T12:49:08Z</time>
      </trkpt>
      <trkpt lat="43.75974" lon="5.15685">
        <ele>124.63</ele>
        <time>2013-09-30T12:49:43Z</time>
      </trkpt>
      <trkpt lat="43.75967" lon="5.1568">
        <ele>124.63</ele>
        <time>2013-09-30T12:50:25Z</time>
      </trkpt>
      <trkpt lat="43.75975" lon="5.15685">
        <ele>125.11</ele>
        <time>2013-09-30T12:50:57Z</time>
      </trkpt>
      <trkpt lat="43.75974" lon="5.15688">
        <ele>125.11</ele>
        <time>2013-09-30T12:51:29Z</time>
      </trkpt>
      <trkpt lat="43.75976" lon="5.15687">
        <ele>125.59</ele>
        <time>2013-09-30T12:51:49Z</time>
      </trkpt>
      <trkpt lat="43.75976" lon="5.15689">
        <ele>125.59</ele>
        <time>2013-09-30T12:52:03Z</time>
      </trkpt>
      <trkpt lat="43.75974" lon="5.15689">
        <ele>125.11</ele>
        <time>2013-09-30T12:52:17Z</time>
      </trkpt>
      <trkpt lat="43.7597" lon="5.15689">
        <ele>125.11</ele>
        <time>2013-09-30T12:52:29Z</time>
      </trkpt>
      <trkpt lat="43.75971" lon="5.15687">
        <ele>125.11</ele>
        <time>2013-09-30T12:52:49Z</time>
      </trkpt>
      <trkpt lat="43.75975" lon="5.15685">
        <ele>124.63</ele>
        <time>2013-09-30T12:53:14Z</time>
      </trkpt>
      <trkpt lat="43.75973" lon="5.15687">
        <ele>124.63</ele>
        <time>2013-09-30T12:53:33Z</time>
      </trkpt>
      <trkpt lat="43.75976" lon="5.15689">
        <ele>123.67</ele>
        <time>2013-09-30T12:54:00Z</time>
      </trkpt>
      <trkpt lat="43.75981" lon="5.15691">
        <ele>124.15</ele>
        <time>2013-09-30T12:54:24Z</time>
      </trkpt>
      <trkpt lat="43.75981" lon="5.15688">
        <ele>124.15</ele>
        <time>2013-09-30T12:54:55Z</time>
      </trkpt>
      <trkpt lat="43.7598" lon="5.15689">
        <ele>123.67</ele>
        <time>2013-09-30T12:55:27Z</time>
      </trkpt>
      <trkpt lat="43.75977" lon="5.15684">
        <ele>123.67</ele>
        <time>2013-09-30T12:55:53Z</time>
      </trkpt>
      <trkpt lat="43.75984" lon="5.15686">
        <ele>123.67</ele>
        <time>2013-09-30T12:56:24Z</time>
      </trkpt>
      <trkpt lat="43.75986" lon="5.15688">
        <ele>123.67</ele>
        <time>2013-09-30T12:56:48Z</time>
      </trkpt>
      <trkpt lat="43.75977" lon="5.15687">
        <ele>123.67</ele>
        <time>2013-09-30T12:57:23Z</time>
      </trkpt>
      <trkpt lat="43.75977" lon="5.15685">
        <ele>123.67</ele>
        <time>2013-09-30T12:57:50Z</time>
      </trkpt>
      <trkpt lat="43.75975" lon="5.15689">
        <ele>123.67</ele>
        <time>2013-09-30T12:58:23Z</time>
      </trkpt>
      <trkpt lat="43.75978" lon="5.15687">
        <ele>123.67</ele>
        <time>2013-09-30T12:58:58Z</time>
      </trkpt>
      <trkpt lat="43.75981" lon="5.15688">
        <ele>123.67</ele>
        <time>2013-09-30T12:59:32Z</time>
      </trkpt>
      <trkpt lat="43.75979" lon="5.15696">
        <ele>123.67</ele>
        <time>2013-09-30T12:59:58Z</time>
      </trkpt>
      <trkpt lat="43.75983" lon="5.15689">
        <ele>122.71</ele>
        <time>2013-09-30T13:00:34Z</time>
      </trkpt>
      <trkpt lat="43.7598" lon="5.15687">
        <ele>122.71</ele>
        <time>2013-09-30T13:00:37Z</time>
      </trkpt>
      <trkpt lat="43.75983" lon="5.15689">
        <ele>129.43</ele>
        <time>2013-09-30T13:01:03Z</time>
      </trkpt>
      <trkpt lat="43.75953" lon="5.15663">
        <ele>129.43</ele>
        <time>2013-09-30T13:01:04Z</time>
      </trkpt>
      <trkpt lat="43.75967" lon="5.15685">
        <ele>129.92</ele>
        <time>2013-09-30T13:01:30Z</time>
      </trkpt>
    </trkseg>
  </trk>
</gpx>